Observation data for Caprock Canyons on 04/25/2019      Previous  Date  Next       Current Mesonet Observations  Soil Data  Daily Summary Page  Observations in Plain Language
KQU1 250500Z 24007KT 14/11 A2987 RMK A01 T01350106  RH  083%=      5-min Rain = 0
KQU1 250501Z 24007KT 14/11 A2987 RMK A01 T01360106  RH  082%=      5-min Rain = 0
KQU1 250502Z 24006KT 14/11 A2987 RMK A01 T01370107  RH  082%=      5-min Rain = 0
KQU1 250503Z 24005KT 14/11 A2987 RMK A01 T01380106  RH  081%=      5-min Rain = 0
KQU1 250504Z 24005KT 14/11 A2987 RMK A01 T01380106  RH  081%=      5-min Rain = 0
KQU1 250505Z 24006KT 14/11 A2987 RMK A01 T01380105  RH  081%=      5-min Rain = 0
KQU1 250506Z 24005KT 14/11 A2987 RMK A01 T01390106  RH  080%=      5-min Rain = 0
KQU1 250507Z 24004KT 14/11 A2987 RMK A01 T01400105  RH  080%=      5-min Rain = 0
KQU1 250508Z 24004KT 14/11 A2987 RMK A01 T01400105  RH  079%=      5-min Rain = 0
KQU1 250509Z 24005KT 14/11 A2987 RMK A01 T01400105  RH  079%=      5-min Rain = 0
KQU1 250510Z 24004KT 14/10 A2987 RMK A01 T01410104  RH  079%=      5-min Rain = 0
KQU1 250511Z 24004KT 14/10 A2987 RMK A01 T01400104  RH  079%=      5-min Rain = 0
KQU1 250512Z 25004KT 14/10 A2987 RMK A01 T01400104  RH  079%=      5-min Rain = 0
KQU1 250513Z 25005KT 14/10 A2987 RMK A01 T01390104  RH  079%=      5-min Rain = 0
KQU1 250514Z 25005KT 14/10 A2987 RMK A01 T01390103  RH  079%=      5-min Rain = 0
KQU1 250515Z 25005KT 14/10 A2987 RMK A01 T01380103  RH  079%=      5-min Rain = 0
KQU1 250516Z 26005KT 14/10 A2987 RMK A01 T01380103  RH  080%=      5-min Rain = 0
KQU1 250517Z 26005KT 14/10 A2987 RMK A01 T01370103  RH  080%=      5-min Rain = 0
KQU1 250518Z 26005KT 14/10 A2987 RMK A01 T01370103  RH  080%=      5-min Rain = 0
KQU1 250519Z 26005KT 14/10 A2987 RMK A01 T01360103  RH  080%=      5-min Rain = 0
KQU1 250520Z 26005KT 14/10 A2987 RMK A01 T01360103  RH  080%=      5-min Rain = 0
KQU1 250521Z 26005KT 14/10 A2987 RMK A01 T01360103  RH  080%=      5-min Rain = 0
KQU1 250522Z 25005KT 14/10 A2987 RMK A01 T01360103  RH  081%=      5-min Rain = 0
KQU1 250523Z 24005KT 14/10 A2987 RMK A01 T01350103  RH  081%=      5-min Rain = 0
KQU1 250524Z 24004KT 14/10 A2987 RMK A01 T01350103  RH  081%=      5-min Rain = 0
KQU1 250525Z 24004KT 14/10 A2987 RMK A01 T01360103  RH  080%=      5-min Rain = 0
KQU1 250526Z 24004KT 14/10 A2987 RMK A01 T01360102  RH  080%=      5-min Rain = 0
KQU1 250527Z 24004KT 14/10 A2987 RMK A01 T01360102  RH  080%=      5-min Rain = 0
KQU1 250528Z 24004KT 14/10 A2987 RMK A01 T01370102  RH  079%=      5-min Rain = 0
KQU1 250529Z 24004KT 14/10 A2987 RMK A01 T01370101  RH  079%=      5-min Rain = 0
KQU1 250530Z 24004KT 14/10 A2987 RMK A01 T01380101  RH  079%=      5-min Rain = 0
KQU1 250531Z 25004KT 14/10 A2987 RMK A01 T01380101  RH  078%=      5-min Rain = 0
KQU1 250532Z 25004KT 14/10 A2987 RMK A01 T01390101  RH  078%=      5-min Rain = 0
KQU1 250533Z 25003KT 14/10 A2987 RMK A01 T01400101  RH  077%=      5-min Rain = 0
KQU1 250534Z 26003KT 14/10 A2987 RMK A01 T01410101  RH  077%=      5-min Rain = 0
KQU1 250535Z 26004KT 14/10 A2987 RMK A01 T01410101  RH  076%=      5-min Rain = 0
KQU1 250536Z 26004KT 14/10 A2987 RMK A01 T01410100  RH  076%=      5-min Rain = 0
KQU1 250537Z 27004KT 14/10 A2987 RMK A01 T01400099  RH  076%=      5-min Rain = 0
KQU1 250538Z 27003KT 14/10 A2987 RMK A01 T01400099  RH  077%=      5-min Rain = 0
KQU1 250539Z 29002KT 14/10 A2987 RMK A01 T01390100  RH  077%=      5-min Rain = 0
KQU1 250540Z 29003KT 14/10 A2987 RMK A01 T01380099  RH  077%=      5-min Rain = 0
KQU1 250541Z 28004KT 14/10 A2987 RMK A01 T01380100  RH  078%=      5-min Rain = 0
KQU1 250542Z 28004KT 14/10 A2987 RMK A01 T01370100  RH  078%=      5-min Rain = 0
KQU1 250543Z 29004KT 14/10 A2987 RMK A01 T01360100  RH  079%=      5-min Rain = 0
KQU1 250544Z 28004KT 14/10 A2987 RMK A01 T01350099  RH  079%=      5-min Rain = 0
KQU1 250545Z 28005KT 13/10 A2987 RMK A01 T01340099  RH  079%=      5-min Rain = 0
KQU1 250546Z 28005KT 13/10 A2987 RMK A01 T01330099  RH  080%=      5-min Rain = 0
KQU1 250547Z 28006KT 13/10 A2987 RMK A01 T01320099  RH  081%=      5-min Rain = 0
KQU1 250548Z 27006KT 13/10 A2987 RMK A01 T01310099  RH  081%=      5-min Rain = 0
KQU1 250549Z 27006KT 13/10 A2987 RMK A01 T01300099  RH  082%=      5-min Rain = 0
KQU1 250550Z 27006KT 13/10 A2987 RMK A01 T01290099  RH  082%=      5-min Rain = 0
KQU1 250551Z 28006KT 13/10 A2987 RMK A01 T01280099  RH  083%=      5-min Rain = 0
KQU1 250552Z 28006KT 13/10 A2987 RMK A01 T01280099  RH  083%=      5-min Rain = 0
KQU1 250553Z 28006KT 13/10 A2987 RMK A01 T01270100  RH  083%=      5-min Rain = 0
KQU1 250554Z 27007KT 13/10 A2987 RMK A01 T01280100  RH  084%=      5-min Rain = 0
KQU1 250555Z 28007KT 13/10 A2987 RMK A01 T01280101  RH  084%=      5-min Rain = 0
KQU1 250556Z 28007KT 13/10 A2987 RMK A01 T01290101  RH  083%=      5-min Rain = 0
KQU1 250557Z 28008KT 13/10 A2987 RMK A01 T01290101  RH  083%=      5-min Rain = 0
KQU1 250558Z 28008KT 13/10 A2987 RMK A01 T01300101  RH  083%=      5-min Rain = 0
KQU1 250559Z 27008KT 13/10 A2987 RMK A01 T01300101  RH  082%=      5-min Rain = 0
KQU1 250600Z 28008KT 13/10 A2987 RMK A01 T01310101  RH  082%=      5-min Rain = 0
KQU1 250601Z 28008KT 13/10 A2987 RMK A01 T01310101  RH  082%=      5-min Rain = 0
KQU1 250602Z 28008KT 13/10 A2987 RMK A01 T01320101  RH  082%=      5-min Rain = 0
KQU1 250603Z 28008KT 13/10 A2987 RMK A01 T01330101  RH  081%=      5-min Rain = 0
KQU1 250604Z 28008KT 13/10 A2987 RMK A01 T01330101  RH  081%=      5-min Rain = 0
KQU1 250605Z 28008KT 13/10 A2987 RMK A01 T01330101  RH  081%=      5-min Rain = 0
KQU1 250606Z 27007KT 13/10 A2987 RMK A01 T01330101  RH  081%=      5-min Rain = 0
KQU1 250607Z 28007KT 13/10 A2987 RMK A01 T01330101  RH  081%=      5-min Rain = 0
KQU1 250608Z 28007KT 13/10 A2987 RMK A01 T01330100  RH  080%=      5-min Rain = 0
KQU1 250609Z 27007KT 13/10 A2987 RMK A01 T01330100  RH  080%=      5-min Rain = 0
KQU1 250610Z 28007KT 13/10 A2987 RMK A01 T01340100  RH  080%=      5-min Rain = 0
KQU1 250611Z 27007KT 13/10 A2987 RMK A01 T01340100  RH  080%=      5-min Rain = 0
KQU1 250612Z 27007KT 13/10 A2987 RMK A01 T01340100  RH  080%=      5-min Rain = 0
KQU1 250613Z 27007KT 13/10 A2987 RMK A01 T01340099  RH  080%=      5-min Rain = 0
KQU1 250614Z 28007KT 13/10 A2987 RMK A01 T01340099  RH  080%=      5-min Rain = 0
KQU1 250615Z 27007KT 13/10 A2987 RMK A01 T01340099  RH  080%=      5-min Rain = 0
KQU1 250616Z 27006KT 13/10 A2987 RMK A01 T01340099  RH  079%=      5-min Rain = 0
KQU1 250617Z 27006KT 13/10 A2987 RMK A01 T01340099  RH  080%=      5-min Rain = 0
KQU1 250618Z 27006KT 13/10 A2987 RMK A01 T01330099  RH  080%=      5-min Rain = 0
KQU1 250619Z 27007KT 13/10 A2987 RMK A01 T01330099  RH  080%=      5-min Rain = 0
KQU1 250620Z 26007KT 13/10 A2987 RMK A01 T01340099  RH  079%=      5-min Rain = 0
KQU1 250621Z 27009KT 13/10 A2987 RMK A01 T01340099  RH  079%=      5-min Rain = 0
KQU1 250622Z 27009KT 14/10 A2987 RMK A01 T01360100  RH  079%=      5-min Rain = 0
KQU1 250623Z 27009KT 14/10 A2987 RMK A01 T01380101  RH  078%=      5-min Rain = 0
KQU1 250624Z 27010KT 14/10 A2987 RMK A01 T01400101  RH  077%=      5-min Rain = 0
KQU1 250625Z 27009KT 14/10 A2987 RMK A01 T01410101  RH  077%=      5-min Rain = 0
KQU1 250626Z 26010KT 14/10 A2987 RMK A01 T01420100  RH  076%=      5-min Rain = 0
KQU1 250627Z 26010KT 14/10 A2987 RMK A01 T01430100  RH  076%=      5-min Rain = 0
KQU1 250628Z 26010KT 14/10 A2987 RMK A01 T01430100  RH  076%=      5-min Rain = 0
KQU1 250629Z 26010KT 14/10 A2987 RMK A01 T01430100  RH  075%=      5-min Rain = 0
KQU1 250630Z 27009KT 14/10 A2987 RMK A01 T01440100  RH  075%=      5-min Rain = 0
KQU1 250631Z 27010KT 14/10 A2987 RMK A01 T01440100  RH  075%=      5-min Rain = 0
KQU1 250632Z 26010KT 14/10 A2987 RMK A01 T01440099  RH  074%=      5-min Rain = 0
KQU1 250633Z 26011KT 15/10 A2987 RMK A01 T01450099  RH  074%=      5-min Rain = 0
KQU1 250634Z 26010KT 15/10 A2987 RMK A01 T01450099  RH  074%=      5-min Rain = 0
KQU1 250635Z 26011KT 15/10 A2987 RMK A01 T01450099  RH  074%=      5-min Rain = 0
KQU1 250636Z 26010KT 15/10 A2987 RMK A01 T01460098  RH  073%=      5-min Rain = 0
KQU1 250637Z 26010KT 15/10 A2987 RMK A01 T01460099  RH  073%=      5-min Rain = 0
KQU1 250638Z 26010KT 15/10 A2987 RMK A01 T01460098  RH  073%=      5-min Rain = 0
KQU1 250639Z 26010KT 15/10 A2987 RMK A01 T01460098  RH  073%=      5-min Rain = 0
KQU1 250640Z 27009KT 15/10 A2987 RMK A01 T01460098  RH  073%=      5-min Rain = 0
KQU1 250641Z 26010KT 15/10 A2987 RMK A01 T01450098  RH  073%=      5-min Rain = 0
KQU1 250642Z 26011KT 15/10 A2987 RMK A01 T01460098  RH  073%=      5-min Rain = 0
KQU1 250643Z 26011KT 15/10 A2987 RMK A01 T01460098  RH  073%=      5-min Rain = 0
KQU1 250644Z 26011KT 15/10 A2987 RMK A01 T01470098  RH  072%=      5-min Rain = 0
KQU1 250645Z 26010KT 15/10 A2987 RMK A01 T01470098  RH  072%=      5-min Rain = 0
KQU1 250646Z 26011KT 15/10 A2987 RMK A01 T01470097  RH  072%=      5-min Rain = 0
KQU1 250647Z 26011KT 15/10 A2987 RMK A01 T01470097  RH  072%=      5-min Rain = 0
KQU1 250648Z 26011KT 15/10 A2987 RMK A01 T01470098  RH  072%=      5-min Rain = 0
KQU1 250649Z 26011KT 15/10 A2987 RMK A01 T01470097  RH  072%=      5-min Rain = 0
KQU1 250650Z 26010KT 15/10 A2987 RMK A01 T01460098  RH  073%=      5-min Rain = 0
KQU1 250651Z 27011KT 15/10 A2987 RMK A01 T01460097  RH  073%=      5-min Rain = 0
KQU1 250652Z 26011KT 15/10 A2987 RMK A01 T01460098  RH  073%=      5-min Rain = 0
KQU1 250653Z 26012KT 15/10 A2987 RMK A01 T01460098  RH  073%=      5-min Rain = 0
KQU1 250654Z 26012KT 15/10 A2987 RMK A01 T01460098  RH  073%=      5-min Rain = 0
KQU1 250655Z 26013KT 15/10 A2987 RMK A01 T01460097  RH  072%=      5-min Rain = 0
KQU1 250656Z 26012KT 15/10 A2987 RMK A01 T01470097  RH  072%=      5-min Rain = 0
KQU1 250657Z 27012KT 15/10 A2987 RMK A01 T01470097  RH  072%=      5-min Rain = 0
KQU1 250658Z 26012KT 15/10 A2987 RMK A01 T01470097  RH  072%=      5-min Rain = 0
KQU1 250659Z 26013KT 15/10 A2986 RMK A01 T01470097  RH  072%=      5-min Rain = 0
KQU1 250700Z 26012KT 15/10 A2986 RMK A01 T01470097  RH  072%=      5-min Rain = 0
KQU1 250701Z 26013KT 15/10 A2986 RMK A01 T01480096  RH  071%=      5-min Rain = 0
KQU1 250702Z 26013KT 15/10 A2986 RMK A01 T01490096  RH  071%=      5-min Rain = 0
KQU1 250703Z 26013KT 15/10 A2986 RMK A01 T01480097  RH  071%=      5-min Rain = 0
KQU1 250704Z 26012KT 15/10 A2986 RMK A01 T01480096  RH  071%=      5-min Rain = 0
KQU1 250705Z 26014KT 15/10 A2986 RMK A01 T01480096  RH  071%=      5-min Rain = 0
KQU1 250706Z 26013KT 15/10 A2986 RMK A01 T01480096  RH  071%=      5-min Rain = 0
KQU1 250707Z 26014KT 15/10 A2986 RMK A01 T01490096  RH  071%=      5-min Rain = 0
KQU1 250708Z 26013KT 15/10 A2986 RMK A01 T01490096  RH  071%=      5-min Rain = 0
KQU1 250709Z 26012KT 15/10 A2986 RMK A01 T01480096  RH  071%=      5-min Rain = 0
KQU1 250710Z 26012G18KT 15/10 A2986 RMK A01 T01470096  RH  071%=      5-min Rain = 0
KQU1 250711Z 26012KT 15/10 A2986 RMK A01 T01470096  RH  072%=      5-min Rain = 0
KQU1 250712Z 26013KT 15/10 A2986 RMK A01 T01470096  RH  071%=      5-min Rain = 0
KQU1 250713Z 26013KT 15/10 A2986 RMK A01 T01470096  RH  071%=      5-min Rain = 0
KQU1 250714Z 26012KT 15/10 A2986 RMK A01 T01470096  RH  071%=      5-min Rain = 0
KQU1 250715Z 26013KT 15/10 A2986 RMK A01 T01470096  RH  071%=      5-min Rain = 0
KQU1 250716Z 26012KT 15/10 A2986 RMK A01 T01470096  RH  071%=      5-min Rain = 0
KQU1 250717Z 26012KT 15/10 A2986 RMK A01 T01470096  RH  071%=      5-min Rain = 0
KQU1 250718Z 26011KT 15/10 A2986 RMK A01 T01460096  RH  072%=      5-min Rain = 0
KQU1 250719Z 26012KT 15/10 A2986 RMK A01 T01460095  RH  072%=      5-min Rain = 0
KQU1 250720Z 26012KT 15/10 A2986 RMK A01 T01460095  RH  071%=      5-min Rain = 0
KQU1 250721Z 26012KT 15/10 A2986 RMK A01 T01460095  RH  071%=      5-min Rain = 0
KQU1 250722Z 26012KT 15/10 A2986 RMK A01 T01460095  RH  071%=      5-min Rain = 0
KQU1 250723Z 26012KT 15/10 A2986 RMK A01 T01470095  RH  071%=      5-min Rain = 0
KQU1 250724Z 26011KT 15/10 A2986 RMK A01 T01460095  RH  071%=      5-min Rain = 0
KQU1 250725Z 26010KT 15/10 A2986 RMK A01 T01460095  RH  071%=      5-min Rain = 0
KQU1 250726Z 26012KT 15/10 A2986 RMK A01 T01460095  RH  072%=      5-min Rain = 0
KQU1 250727Z 26012KT 15/10 A2986 RMK A01 T01460095  RH  071%=      5-min Rain = 0
KQU1 250728Z 26012KT 15/10 A2986 RMK A01 T01460095  RH  071%=      5-min Rain = 0
KQU1 250729Z 26011KT 15/10 A2986 RMK A01 T01450095  RH  072%=      5-min Rain = 0
KQU1 250730Z 26011KT 15/10 A2986 RMK A01 T01450095  RH  072%=      5-min Rain = 0
KQU1 250731Z 26013KT 15/10 A2986 RMK A01 T01450095  RH  072%=      5-min Rain = 0
KQU1 250732Z 26013KT 15/10 A2986 RMK A01 T01450095  RH  072%=      5-min Rain = 0
KQU1 250733Z 26012KT 15/10 A2986 RMK A01 T01460095  RH  071%=      5-min Rain = 0
KQU1 250734Z 26011KT 15/09 A2986 RMK A01 T01450094  RH  071%=      5-min Rain = 0
KQU1 250735Z 26013KT 15/09 A2986 RMK A01 T01460094  RH  071%=      5-min Rain = 0
KQU1 250736Z 26013KT 15/09 A2986 RMK A01 T01460094  RH  071%=      5-min Rain = 0
KQU1 250737Z 26012KT 15/09 A2986 RMK A01 T01460094  RH  071%=      5-min Rain = 0
KQU1 250738Z 26012KT 15/09 A2986 RMK A01 T01450094  RH  071%=      5-min Rain = 0
KQU1 250739Z 26012KT 15/10 A2986 RMK A01 T01450095  RH  072%=      5-min Rain = 0
KQU1 250740Z 26012G18KT 15/09 A2985 RMK A01 T01450094  RH  072%=      5-min Rain = 0
KQU1 250741Z 26013KT 14/09 A2985 RMK A01 T01440094  RH  072%=      5-min Rain = 0
KQU1 250742Z 26014KT 15/09 A2985 RMK A01 T01450094  RH  071%=      5-min Rain = 0
KQU1 250743Z 26014KT 15/09 A2985 RMK A01 T01450094  RH  071%=      5-min Rain = 0
KQU1 250744Z 26014KT 15/09 A2985 RMK A01 T01460094  RH  071%=      5-min Rain = 0
KQU1 250745Z 26013KT 15/09 A2985 RMK A01 T01460094  RH  071%=      5-min Rain = 0
KQU1 250746Z 26015KT 15/09 A2985 RMK A01 T01460094  RH  071%=      5-min Rain = 0
KQU1 250747Z 26016KT 15/09 A2985 RMK A01 T01470093  RH  070%=      5-min Rain = 0
KQU1 250748Z 26013KT 15/09 A2985 RMK A01 T01470094  RH  070%=      5-min Rain = 0
KQU1 250749Z 26014KT 15/09 A2985 RMK A01 T01460093  RH  070%=      5-min Rain = 0
KQU1 250750Z 26015KT 15/09 A2985 RMK A01 T01460093  RH  071%=      5-min Rain = 0
KQU1 250751Z 26013KT 15/09 A2985 RMK A01 T01460094  RH  071%=      5-min Rain = 0
KQU1 250752Z 26014KT 15/09 A2985 RMK A01 T01450093  RH  071%=      5-min Rain = 0
KQU1 250753Z 26013KT 15/09 A2985 RMK A01 T01450093  RH  071%=      5-min Rain = 0
KQU1 250754Z 26014KT 15/09 A2985 RMK A01 T01450093  RH  071%=      5-min Rain = 0
KQU1 250755Z 26015KT 15/09 A2985 RMK A01 T01460093  RH  071%=      5-min Rain = 0
KQU1 250756Z 26015KT 15/09 A2985 RMK A01 T01460093  RH  070%=      5-min Rain = 0
KQU1 250757Z 26014KT 15/09 A2985 RMK A01 T01460093  RH  070%=      5-min Rain = 0
KQU1 250758Z 26016KT 15/09 A2985 RMK A01 T01460092  RH  070%=      5-min Rain = 0
KQU1 250759Z 26015KT 15/09 A2985 RMK A01 T01460093  RH  070%=      5-min Rain = 0
KQU1 250800Z 26016KT 15/09 A2985 RMK A01 T01460093  RH  070%=      5-min Rain = 0
KQU1 250801Z 26017KT 15/09 A2985 RMK A01 T01460092  RH  070%=      5-min Rain = 0
KQU1 250802Z 26015KT 15/09 A2985 RMK A01 T01470092  RH  070%=      5-min Rain = 0
KQU1 250803Z 26015KT 15/09 A2985 RMK A01 T01460092  RH  070%=      5-min Rain = 0
KQU1 250804Z 26015G20KT 15/09 A2985 RMK A01 T01460092  RH  070%=      5-min Rain = 0
KQU1 250805Z 26014KT 15/09 A2985 RMK A01 T01460093  RH  070%=      5-min Rain = 0
KQU1 250806Z 26016KT 15/09 A2985 RMK A01 T01450092  RH  071%=      5-min Rain = 0
KQU1 250807Z 26014KT 15/09 A2985 RMK A01 T01450092  RH  070%=      5-min Rain = 0
KQU1 250808Z 26017KT 15/09 A2985 RMK A01 T01450092  RH  071%=      5-min Rain = 0
KQU1 250809Z 26014KT 15/09 A2985 RMK A01 T01450092  RH  071%=      5-min Rain = 0
KQU1 250810Z 26015KT 14/09 A2985 RMK A01 T01440092  RH  071%=      5-min Rain = 0
KQU1 250811Z 26016KT 14/09 A2985 RMK A01 T01440092  RH  071%=      5-min Rain = 0
KQU1 250812Z 26015KT 15/09 A2985 RMK A01 T01450092  RH  071%=      5-min Rain = 0
KQU1 250813Z 26015KT 14/09 A2985 RMK A01 T01440092  RH  071%=      5-min Rain = 0
KQU1 250814Z 26015G20KT 14/09 A2985 RMK A01 T01440092  RH  071%=      5-min Rain = 0
KQU1 250815Z 26015KT 14/09 A2985 RMK A01 T01430092  RH  071%=      5-min Rain = 0
KQU1 250816Z 26015KT 14/09 A2984 RMK A01 T01430092  RH  071%=      5-min Rain = 0
KQU1 250817Z 26015KT 14/09 A2985 RMK A01 T01440092  RH  071%=      5-min Rain = 0
KQU1 250818Z 26016KT 14/09 A2984 RMK A01 T01440092  RH  071%=      5-min Rain = 0
KQU1 250819Z 25015KT 14/09 A2984 RMK A01 T01440092  RH  071%=      5-min Rain = 0
KQU1 250820Z 26014KT 14/09 A2985 RMK A01 T01440092  RH  071%=      5-min Rain = 0
KQU1 250821Z 26017KT 14/09 A2984 RMK A01 T01440092  RH  071%=      5-min Rain = 0
KQU1 250822Z 26016KT 14/09 A2984 RMK A01 T01440092  RH  071%=      5-min Rain = 0
KQU1 250823Z 26015KT 14/09 A2984 RMK A01 T01440092  RH  071%=      5-min Rain = 0
KQU1 250824Z 26017KT 14/09 A2984 RMK A01 T01440092  RH  071%=      5-min Rain = 0
KQU1 250825Z 26016KT 14/09 A2984 RMK A01 T01440092  RH  071%=      5-min Rain = 0
KQU1 250826Z 26016KT 14/09 A2985 RMK A01 T01440092  RH  071%=      5-min Rain = 0
KQU1 250827Z 26017KT 15/09 A2985 RMK A01 T01450092  RH  070%=      5-min Rain = 0
KQU1 250828Z 26016G21KT 15/09 A2985 RMK A01 T01450092  RH  071%=      5-min Rain = 0
KQU1 250829Z 26017G22KT 15/09 A2985 RMK A01 T01450092  RH  071%=      5-min Rain = 0
KQU1 250830Z 26016KT 15/09 A2985 RMK A01 T01450092  RH  071%=      5-min Rain = 0
KQU1 250831Z 26014KT 14/09 A2985 RMK A01 T01440092  RH  071%=      5-min Rain = 0
KQU1 250832Z 27012KT 14/09 A2985 RMK A01 T01430092  RH  071%=      5-min Rain = 0
KQU1 250833Z 27013KT 14/09 A2985 RMK A01 T01430092  RH  071%=      5-min Rain = 0
KQU1 250834Z 27014KT 14/09 A2985 RMK A01 T01430092  RH  071%=      5-min Rain = 0
KQU1 250835Z 27013KT 14/09 A2985 RMK A01 T01420092  RH  072%=      5-min Rain = 0
KQU1 250836Z 27013KT 14/09 A2985 RMK A01 T01420092  RH  072%=      5-min Rain = 0
KQU1 250837Z 27012KT 14/09 A2985 RMK A01 T01410092  RH  072%=      5-min Rain = 0
KQU1 250838Z 27012KT 14/09 A2985 RMK A01 T01410092  RH  073%=      5-min Rain = 0
KQU1 250839Z 27012KT 14/09 A2985 RMK A01 T01400092  RH  073%=      5-min Rain = 0
KQU1 250840Z 27013KT 14/09 A2985 RMK A01 T01390092  RH  073%=      5-min Rain = 0
KQU1 250841Z 27011KT 14/09 A2985 RMK A01 T01390092  RH  073%=      5-min Rain = 0
KQU1 250842Z 27013KT 14/09 A2985 RMK A01 T01390092  RH  073%=      5-min Rain = 0
KQU1 250843Z 27013KT 14/09 A2985 RMK A01 T01390093  RH  073%=      5-min Rain = 0
KQU1 250844Z 27012KT 14/09 A2985 RMK A01 T01390092  RH  074%=      5-min Rain = 0
KQU1 250845Z 27013KT 14/09 A2985 RMK A01 T01390093  RH  074%=      5-min Rain = 0
KQU1 250846Z 28012KT 14/09 A2985 RMK A01 T01380093  RH  074%=      5-min Rain = 0
KQU1 250847Z 27014KT 14/09 A2985 RMK A01 T01380093  RH  074%=      5-min Rain = 0
KQU1 250848Z 27014KT 14/09 A2985 RMK A01 T01390093  RH  074%=      5-min Rain = 0
KQU1 250849Z 27013KT 14/09 A2985 RMK A01 T01380093  RH  074%=      5-min Rain = 0
KQU1 250850Z 27016KT 14/09 A2984 RMK A01 T01380093  RH  074%=      5-min Rain = 0
KQU1 250851Z 27015KT 14/09 A2984 RMK A01 T01390093  RH  074%=      5-min Rain = 0
KQU1 250852Z 27013KT 14/09 A2984 RMK A01 T01390093  RH  074%=      5-min Rain = 0
KQU1 250853Z 28014KT 14/09 A2984 RMK A01 T01390093  RH  074%=      5-min Rain = 0
KQU1 250854Z 27015KT 14/09 A2984 RMK A01 T01390093  RH  074%=      5-min Rain = 0
KQU1 250855Z 27015KT 14/09 A2984 RMK A01 T01390093  RH  074%=      5-min Rain = 0
KQU1 250856Z 28014KT 14/09 A2984 RMK A01 T01390093  RH  074%=      5-min Rain = 0
KQU1 250857Z 27014KT 14/09 A2984 RMK A01 T01390093  RH  074%=      5-min Rain = 0
KQU1 250858Z 28014KT 14/09 A2984 RMK A01 T01390093  RH  074%=      5-min Rain = 0
KQU1 250859Z 27013KT 14/09 A2984 RMK A01 T01390093  RH  074%=      5-min Rain = 0
KQU1 250900Z 27014KT 14/09 A2984 RMK A01 T01390093  RH  074%=      5-min Rain = 0
KQU1 250901Z 27014KT 14/09 A2984 RMK A01 T01390093  RH  074%=      5-min Rain = 0
KQU1 250902Z 27014KT 14/09 A2984 RMK A01 T01390093  RH  074%=      5-min Rain = 0
KQU1 250903Z 28014KT 14/09 A2984 RMK A01 T01390093  RH  074%=      5-min Rain = 0
KQU1 250904Z 27013KT 14/09 A2984 RMK A01 T01380093  RH  074%=      5-min Rain = 0
KQU1 250905Z 27012KT 14/09 A2984 RMK A01 T01380093  RH  074%=      5-min Rain = 0
KQU1 250906Z 27011KT 14/09 A2984 RMK A01 T01370093  RH  075%=      5-min Rain = 0
KQU1 250907Z 27010KT 14/09 A2984 RMK A01 T01360093  RH  075%=      5-min Rain = 0
KQU1 250908Z 28010KT 14/09 A2984 RMK A01 T01360093  RH  075%=      5-min Rain = 0
KQU1 250909Z 28009KT 14/09 A2984 RMK A01 T01350093  RH  076%=      5-min Rain = 0
KQU1 250910Z 28009KT 13/09 A2984 RMK A01 T01340093  RH  076%=      5-min Rain = 0
KQU1 250911Z 28008KT 13/09 A2984 RMK A01 T01330093  RH  077%=      5-min Rain = 0
KQU1 250912Z 28008KT 13/09 A2984 RMK A01 T01330093  RH  077%=      5-min Rain = 0
KQU1 250913Z 29007KT 13/09 A2984 RMK A01 T01320093  RH  077%=      5-min Rain = 0
KQU1 250914Z 29008KT 13/09 A2984 RMK A01 T01310093  RH  078%=      5-min Rain = 0
KQU1 250915Z 29007KT 13/09 A2984 RMK A01 T01310093  RH  078%=      5-min Rain = 0
KQU1 250916Z 29008KT 13/09 A2984 RMK A01 T01310094  RH  078%=      5-min Rain = 0
KQU1 250917Z 30008KT 13/09 A2984 RMK A01 T01310094  RH  078%=      5-min Rain = 0
KQU1 250918Z 30007KT 13/09 A2984 RMK A01 T01300093  RH  078%=      5-min Rain = 0
KQU1 250919Z 30008KT 13/09 A2984 RMK A01 T01290092  RH  078%=      5-min Rain = 0
KQU1 250920Z 30008KT 13/09 A2984 RMK A01 T01270092  RH  079%=      5-min Rain = 0
KQU1 250921Z 30008KT 13/09 A2984 RMK A01 T01260092  RH  080%=      5-min Rain = 0
KQU1 250922Z 30008KT 13/09 A2984 RMK A01 T01260092  RH  080%=      5-min Rain = 0
KQU1 250923Z 30009KT 13/09 A2984 RMK A01 T01250092  RH  080%=      5-min Rain = 0
KQU1 250924Z 30009KT 13/09 A2984 RMK A01 T01250092  RH  080%=      5-min Rain = 0
KQU1 250925Z 30009KT 13/09 A2984 RMK A01 T01260092  RH  080%=      5-min Rain = 0
KQU1 250926Z 30008KT 13/09 A2984 RMK A01 T01260093  RH  080%=      5-min Rain = 0
KQU1 250927Z 30009KT 13/09 A2984 RMK A01 T01260092  RH  080%=      5-min Rain = 0
KQU1 250928Z 30009KT 13/09 A2984 RMK A01 T01250092  RH  080%=      5-min Rain = 0
KQU1 250929Z 30009KT 12/09 A2984 RMK A01 T01240091  RH  081%=      5-min Rain = 0
KQU1 250930Z 30009KT 12/09 A2984 RMK A01 T01230091  RH  081%=      5-min Rain = 0
KQU1 250931Z 30009KT 12/09 A2984 RMK A01 T01220092  RH  082%=      5-min Rain = 0
KQU1 250932Z 30010KT 12/09 A2984 RMK A01 T01220092  RH  082%=      5-min Rain = 0
KQU1 250933Z 30009KT 12/09 A2984 RMK A01 T01230093  RH  082%=      5-min Rain = 0
KQU1 250934Z 29010KT 12/09 A2984 RMK A01 T01230093  RH  082%=      5-min Rain = 0
KQU1 250935Z 29010KT 12/09 A2984 RMK A01 T01240093  RH  081%=      5-min Rain = 0
KQU1 250936Z 29010KT 12/09 A2984 RMK A01 T01240093  RH  081%=      5-min Rain = 0
KQU1 250937Z 29009KT 13/09 A2984 RMK A01 T01250093  RH  081%=      5-min Rain = 0
KQU1 250938Z 29009KT 13/09 A2984 RMK A01 T01250093  RH  081%=      5-min Rain = 0
KQU1 250939Z 29009KT 13/09 A2984 RMK A01 T01250092  RH  081%=      5-min Rain = 0
KQU1 250940Z 29009KT 12/09 A2984 RMK A01 T01240093  RH  081%=      5-min Rain = 0
KQU1 250941Z 28009KT 13/09 A2984 RMK A01 T01250093  RH  081%=      5-min Rain = 0
KQU1 250942Z 28009KT 13/09 A2984 RMK A01 T01250093  RH  081%=      5-min Rain = 0
KQU1 250943Z 28009KT 13/09 A2984 RMK A01 T01260093  RH  081%=      5-min Rain = 0
KQU1 250944Z 28009KT 13/09 A2984 RMK A01 T01270093  RH  080%=      5-min Rain = 0
KQU1 250945Z 28009KT 13/09 A2984 RMK A01 T01270093  RH  080%=      5-min Rain = 0
KQU1 250946Z 28008KT 13/09 A2984 RMK A01 T01270093  RH  080%=      5-min Rain = 0
KQU1 250947Z 28009KT 13/09 A2984 RMK A01 T01280093  RH  080%=      5-min Rain = 0
KQU1 250948Z 28009KT 13/09 A2984 RMK A01 T01280093  RH  079%=      5-min Rain = 0
KQU1 250949Z 28008KT 13/09 A2984 RMK A01 T01280093  RH  079%=      5-min Rain = 0
KQU1 250950Z 29009KT 13/09 A2984 RMK A01 T01280093  RH  079%=      5-min Rain = 0
KQU1 250951Z 29010KT 13/09 A2984 RMK A01 T01280093  RH  079%=      5-min Rain = 0
KQU1 250952Z 29010KT 13/09 A2984 RMK A01 T01280093  RH  079%=      5-min Rain = 0
KQU1 250953Z 29011KT 13/09 A2984 RMK A01 T01280093  RH  079%=      5-min Rain = 0
KQU1 250954Z 29010KT 13/09 A2984 RMK A01 T01280093  RH  079%=      5-min Rain = 0
KQU1 250955Z 29009KT 13/09 A2984 RMK A01 T01270092  RH  079%=      5-min Rain = 0
KQU1 250956Z 28009KT 13/09 A2984 RMK A01 T01260091  RH  080%=      5-min Rain = 0
KQU1 250957Z 29009KT 13/09 A2984 RMK A01 T01250091  RH  080%=      5-min Rain = 0
KQU1 250958Z 28010KT 13/09 A2984 RMK A01 T01250092  RH  080%=      5-min Rain = 0
KQU1 250959Z 28011KT 13/09 A2984 RMK A01 T01250092  RH  080%=      5-min Rain = 0
KQU1 251000Z 29011KT 13/09 A2984 RMK A01 T01250092  RH  080%=      5-min Rain = 0
KQU1 251001Z 28010KT 12/09 A2984 RMK A01 T01240091  RH  080%=      5-min Rain = 0
KQU1 251002Z 28010KT 12/09 A2984 RMK A01 T01240091  RH  081%=      5-min Rain = 0
KQU1 251003Z 28010KT 12/09 A2984 RMK A01 T01240092  RH  081%=      5-min Rain = 0
KQU1 251004Z 28011KT 12/09 A2984 RMK A01 T01240092  RH  081%=      5-min Rain = 0
KQU1 251005Z 28011KT 13/09 A2984 RMK A01 T01250092  RH  080%=      5-min Rain = 0
KQU1 251006Z 29011KT 13/09 A2984 RMK A01 T01260092  RH  080%=      5-min Rain = 0
KQU1 251007Z 29012KT 13/09 A2984 RMK A01 T01260092  RH  080%=      5-min Rain = 0
KQU1 251008Z 29011KT 13/09 A2984 RMK A01 T01270092  RH  079%=      5-min Rain = 0
KQU1 251009Z 28011KT 13/09 A2984 RMK A01 T01280092  RH  079%=      5-min Rain = 0
KQU1 251010Z 28011KT 13/09 A2984 RMK A01 T01280092  RH  079%=      5-min Rain = 0
KQU1 251011Z 29011KT 13/09 A2984 RMK A01 T01280092  RH  079%=      5-min Rain = 0
KQU1 251012Z 28011KT 13/09 A2984 RMK A01 T01280092  RH  079%=      5-min Rain = 0
KQU1 251013Z 28011KT 13/09 A2984 RMK A01 T01280092  RH  079%=      5-min Rain = 0
KQU1 251014Z 29011KT 13/09 A2984 RMK A01 T01270092  RH  079%=      5-min Rain = 0
KQU1 251015Z 29010KT 13/09 A2984 RMK A01 T01270092  RH  079%=      5-min Rain = 0
KQU1 251016Z 29011KT 13/09 A2984 RMK A01 T01270092  RH  079%=      5-min Rain = 0
KQU1 251017Z 29011KT 13/09 A2984 RMK A01 T01270092  RH  079%=      5-min Rain = 0
KQU1 251018Z 29011KT 13/09 A2984 RMK A01 T01270092  RH  079%=      5-min Rain = 0
KQU1 251019Z 29011KT 13/09 A2984 RMK A01 T01280092  RH  079%=      5-min Rain = 0
KQU1 251020Z 29010KT 13/09 A2984 RMK A01 T01280092  RH  079%=      5-min Rain = 0
KQU1 251021Z 29009KT 13/09 A2985 RMK A01 T01280092  RH  079%=      5-min Rain = 0
KQU1 251022Z 29010KT 13/09 A2985 RMK A01 T01280092  RH  079%=      5-min Rain = 0
KQU1 251023Z 29010KT 13/09 A2985 RMK A01 T01280092  RH  079%=      5-min Rain = 0
KQU1 251024Z 29010KT 13/09 A2985 RMK A01 T01280092  RH  079%=      5-min Rain = 0
KQU1 251025Z 29009KT 13/09 A2985 RMK A01 T01280092  RH  078%=      5-min Rain = 0
KQU1 251026Z 29009KT 13/09 A2985 RMK A01 T01280091  RH  079%=      5-min Rain = 0
KQU1 251027Z 28010KT 13/09 A2985 RMK A01 T01280092  RH  078%=      5-min Rain = 0
KQU1 251028Z 28010KT 13/09 A2985 RMK A01 T01290092  RH  078%=      5-min Rain = 0
KQU1 251029Z 28009KT 13/09 A2985 RMK A01 T01290092  RH  078%=      5-min Rain = 0
KQU1 251030Z 28009KT 13/09 A2985 RMK A01 T01290092  RH  078%=      5-min Rain = 0
KQU1 251031Z 28009KT 13/09 A2985 RMK A01 T01290091  RH  078%=      5-min Rain = 0
KQU1 251032Z 28010KT 13/09 A2985 RMK A01 T01280091  RH  078%=      5-min Rain = 0
KQU1 251033Z 28010KT 13/09 A2985 RMK A01 T01280091  RH  078%=      5-min Rain = 0
KQU1 251034Z 28010KT 13/09 A2985 RMK A01 T01290091  RH  078%=      5-min Rain = 0
KQU1 251035Z 28010KT 13/09 A2985 RMK A01 T01290091  RH  078%=      5-min Rain = 0
KQU1 251036Z 28010KT 13/09 A2985 RMK A01 T01290091  RH  078%=      5-min Rain = 0
KQU1 251037Z 29011KT 13/09 A2985 RMK A01 T01290091  RH  078%=      5-min Rain = 0
KQU1 251038Z 28012KT 13/09 A2985 RMK A01 T01290091  RH  078%=      5-min Rain = 0
KQU1 251039Z 28011KT 13/09 A2985 RMK A01 T01290091  RH  077%=      5-min Rain = 0
KQU1 251040Z 28011KT 13/09 A2985 RMK A01 T01300091  RH  077%=      5-min Rain = 0
KQU1 251041Z 28011KT 13/09 A2985 RMK A01 T01300091  RH  077%=      5-min Rain = 0
KQU1 251042Z 28011KT 13/09 A2985 RMK A01 T01300091  RH  077%=      5-min Rain = 0
KQU1 251043Z 28010KT 13/09 A2985 RMK A01 T01310090  RH  076%=      5-min Rain = 0
KQU1 251044Z 28009KT 13/09 A2985 RMK A01 T01310090  RH  076%=      5-min Rain = 0
KQU1 251045Z 28010KT 13/09 A2985 RMK A01 T01310090  RH  076%=      5-min Rain = 0
KQU1 251046Z 28010KT 13/09 A2985 RMK A01 T01310090  RH  076%=      5-min Rain = 0
KQU1 251047Z 28010KT 13/09 A2985 RMK A01 T01310090  RH  076%=      5-min Rain = 0
KQU1 251048Z 28010KT 13/09 A2985 RMK A01 T01310090  RH  076%=      5-min Rain = 0
KQU1 251049Z 29010KT 13/09 A2985 RMK A01 T01320090  RH  076%=      5-min Rain = 0
KQU1 251050Z 28010KT 13/09 A2985 RMK A01 T01320090  RH  075%=      5-min Rain = 0
KQU1 251051Z 28010KT 13/09 A2985 RMK A01 T01320090  RH  075%=      5-min Rain = 0
KQU1 251052Z 28010KT 13/09 A2985 RMK A01 T01320089  RH  075%=      5-min Rain = 0
KQU1 251053Z 28009KT 13/09 A2985 RMK A01 T01330089  RH  075%=      5-min Rain = 0
KQU1 251054Z 28009KT 13/09 A2985 RMK A01 T01330089  RH  075%=      5-min Rain = 0
KQU1 251055Z 28009KT 13/09 A2985 RMK A01 T01320088  RH  075%=      5-min Rain = 0
KQU1 251056Z 28011KT 13/09 A2985 RMK A01 T01320088  RH  075%=      5-min Rain = 0
KQU1 251057Z 28012KT 13/09 A2985 RMK A01 T01320088  RH  075%=      5-min Rain = 0
KQU1 251058Z 28011KT 13/09 A2985 RMK A01 T01320088  RH  075%=      5-min Rain = 0
KQU1 251059Z 28012KT 13/09 A2985 RMK A01 T01320088  RH  075%=      5-min Rain = 0
KQU1 251100Z 28013KT 13/09 A2985 RMK A01 T01330088  RH  074%=      5-min Rain = 0
KQU1 251101Z 28012KT 13/09 A2985 RMK A01 T01340088  RH  074%=      5-min Rain = 0
KQU1 251102Z 28011KT 13/09 A2985 RMK A01 T01340088  RH  074%=      5-min Rain = 0
KQU1 251103Z 28012KT 13/09 A2985 RMK A01 T01330088  RH  074%=      5-min Rain = 0
KQU1 251104Z 28011KT 13/09 A2985 RMK A01 T01340087  RH  073%=      5-min Rain = 0
KQU1 251105Z 28011KT 13/09 A2985 RMK A01 T01340087  RH  073%=      5-min Rain = 0
KQU1 251106Z 28010KT 14/09 A2985 RMK A01 T01350087  RH  073%=      5-min Rain = 0
KQU1 251107Z 28010KT 14/09 A2985 RMK A01 T01350086  RH  073%=      5-min Rain = 0
KQU1 251108Z 28012KT 14/09 A2985 RMK A01 T01350086  RH  072%=      5-min Rain = 0
KQU1 251109Z 28012KT 14/09 A2985 RMK A01 T01350086  RH  072%=      5-min Rain = 0
KQU1 251110Z 28010KT 14/09 A2985 RMK A01 T01350086  RH  072%=      5-min Rain = 0
KQU1 251111Z 28011KT 14/09 A2985 RMK A01 T01350086  RH  072%=      5-min Rain = 0
KQU1 251112Z 28011KT 14/09 A2985 RMK A01 T01350086  RH  072%=      5-min Rain = 0
KQU1 251113Z 28012KT 14/09 A2985 RMK A01 T01350086  RH  072%=      5-min Rain = 0
KQU1 251114Z 28011KT 14/09 A2985 RMK A01 T01350086  RH  072%=      5-min Rain = 0
KQU1 251115Z 28011KT 14/09 A2985 RMK A01 T01350085  RH  072%=      5-min Rain = 0
KQU1 251116Z 28010KT 14/09 A2985 RMK A01 T01350085  RH  071%=      5-min Rain = 0
KQU1 251117Z 28011KT 14/09 A2985 RMK A01 T01360085  RH  071%=      5-min Rain = 0
KQU1 251118Z 28011KT 14/08 A2985 RMK A01 T01360084  RH  071%=      5-min Rain = 0
KQU1 251119Z 28010KT 14/08 A2985 RMK A01 T01360084  RH  071%=      5-min Rain = 0
KQU1 251120Z 28009KT 14/08 A2985 RMK A01 T01360084  RH  071%=      5-min Rain = 0
KQU1 251121Z 28009KT 14/08 A2985 RMK A01 T01350084  RH  071%=      5-min Rain = 0
KQU1 251122Z 28009KT 14/08 A2985 RMK A01 T01350084  RH  071%=      5-min Rain = 0
KQU1 251123Z 28009KT 13/08 A2985 RMK A01 T01340083  RH  071%=      5-min Rain = 0
KQU1 251124Z 28009KT 13/08 A2985 RMK A01 T01340083  RH  071%=      5-min Rain = 0
KQU1 251125Z 28009KT 13/08 A2985 RMK A01 T01340083  RH  071%=      5-min Rain = 0
KQU1 251126Z 28010KT 13/08 A2985 RMK A01 T01340083  RH  071%=      5-min Rain = 0
KQU1 251127Z 28009KT 14/08 A2985 RMK A01 T01350083  RH  071%=      5-min Rain = 0
KQU1 251128Z 28009KT 14/08 A2985 RMK A01 T01350083  RH  070%=      5-min Rain = 0
KQU1 251129Z 29009KT 14/08 A2985 RMK A01 T01350083  RH  071%=      5-min Rain = 0
KQU1 251130Z 28009KT 14/08 A2985 RMK A01 T01350082  RH  071%=      5-min Rain = 0
KQU1 251131Z 29009KT 14/08 A2985 RMK A01 T01350083  RH  071%=      5-min Rain = 0
KQU1 251132Z 29010KT 14/08 A2985 RMK A01 T01350082  RH  071%=      5-min Rain = 0
KQU1 251133Z 29010KT 14/08 A2986 RMK A01 T01350082  RH  071%=      5-min Rain = 0
KQU1 251134Z 29011KT 14/08 A2986 RMK A01 T01350082  RH  070%=      5-min Rain = 0
KQU1 251135Z 29009KT 14/08 A2986 RMK A01 T01360082  RH  070%=      5-min Rain = 0
KQU1 251136Z 29008KT 14/08 A2986 RMK A01 T01350082  RH  070%=      5-min Rain = 0
KQU1 251137Z 30009KT 14/08 A2986 RMK A01 T01350082  RH  070%=      5-min Rain = 0
KQU1 251138Z 29006KT 14/08 A2986 RMK A01 T01350082  RH  070%=      5-min Rain = 0
KQU1 251139Z 30005KT 14/08 A2986 RMK A01 T01350082  RH  070%=      5-min Rain = 0
KQU1 251140Z 29005KT 13/08 A2986 RMK A01 T01340082  RH  070%=      5-min Rain = 0
KQU1 251141Z 29006KT 13/08 A2986 RMK A01 T01340082  RH  070%=      5-min Rain = 0
KQU1 251142Z 29006KT 13/08 A2986 RMK A01 T01340081  RH  070%=      5-min Rain = 0
KQU1 251143Z 29006KT 13/08 A2986 RMK A01 T01340082  RH  070%=      5-min Rain = 0
KQU1 251144Z 29007KT 13/08 A2986 RMK A01 T01340081  RH  070%=      5-min Rain = 0
KQU1 251145Z 30006KT 13/08 A2986 RMK A01 T01340082  RH  071%=      5-min Rain = 0
KQU1 251146Z 34004KT 13/08 A2986 RMK A01 T01330082  RH  071%=      5-min Rain = 0
KQU1 251147Z 36002KT 13/08 A2986 RMK A01 T01320083  RH  072%=      5-min Rain = 0
KQU1 251148Z 02001KT 13/08 A2986 RMK A01 T01300083  RH  073%=      5-min Rain = 0
KQU1 251149Z 01001KT 13/08 A2986 RMK A01 T01290084  RH  074%=      5-min Rain = 0
KQU1 251150Z 00000KT 13/08 A2986 RMK A01 T01290084  RH  074%=      5-min Rain = 0
KQU1 251151Z 00001KT 13/08 A2986 RMK A01 T01280083  RH  074%=      5-min Rain = 0
KQU1 251152Z 35004KT 13/08 A2987 RMK A01 T01280084  RH  075%=      5-min Rain = 0
KQU1 251153Z 33004KT 13/08 A2987 RMK A01 T01270083  RH  074%=      5-min Rain = 0
KQU1 251154Z 34003KT 13/08 A2987 RMK A01 T01270083  RH  074%=      5-min Rain = 0
KQU1 251155Z 31004KT 13/08 A2987 RMK A01 T01270082  RH  074%=      5-min Rain = 0
KQU1 251156Z 01003KT 13/08 A2987 RMK A01 T01270082  RH  074%=      5-min Rain = 0
KQU1 251157Z 00003KT 13/08 A2987 RMK A01 T01270082  RH  074%=      5-min Rain = 0
KQU1 251158Z 33003KT 13/08 A2987 RMK A01 T01270082  RH  074%=      5-min Rain = 0
KQU1 251159Z 31003KT 13/08 A2987 RMK A01 T01270082  RH  074%=      5-min Rain = 0
KQU1 251200Z 32004KT 13/08 A2987 RMK A01 T01270081  RH  074%=      5-min Rain = 0
KQU1 251201Z 32004KT 13/08 A2987 RMK A01 T01270081  RH  074%=      5-min Rain = 0
KQU1 251202Z 31005KT 13/08 A2987 RMK A01 T01260081  RH  074%=      5-min Rain = 0
KQU1 251203Z 32004KT 13/08 A2987 RMK A01 T01260081  RH  074%=      5-min Rain = 0
KQU1 251204Z 32004KT 13/08 A2987 RMK A01 T01260081  RH  074%=      5-min Rain = 0
KQU1 251205Z 32003KT 13/08 A2987 RMK A01 T01260081  RH  074%=      5-min Rain = 0
KQU1 251206Z 31005KT 13/08 A2987 RMK A01 T01250081  RH  074%=      5-min Rain = 0
KQU1 251207Z 30006KT 13/08 A2987 RMK A01 T01250080  RH  074%=      5-min Rain = 0
KQU1 251208Z 31005KT 12/08 A2987 RMK A01 T01240081  RH  075%=      5-min Rain = 0
KQU1 251209Z 30005KT 12/08 A2987 RMK A01 T01240081  RH  075%=      5-min Rain = 0
KQU1 251210Z 30008KT 12/08 A2987 RMK A01 T01240081  RH  075%=      5-min Rain = 0
KQU1 251211Z 29006KT 12/08 A2987 RMK A01 T01240081  RH  075%=      5-min Rain = 0
KQU1 251212Z 29007KT 12/08 A2987 RMK A01 T01240081  RH  075%=      5-min Rain = 0
KQU1 251213Z 29008KT 12/08 A2988 RMK A01 T01240081  RH  075%=      5-min Rain = 0
KQU1 251214Z 29008KT 13/08 A2988 RMK A01 T01250081  RH  074%=      5-min Rain = 0
KQU1 251215Z 30008KT 13/08 A2988 RMK A01 T01260081  RH  074%=      5-min Rain = 0
KQU1 251216Z 30007KT 13/08 A2988 RMK A01 T01260081  RH  074%=      5-min Rain = 0
KQU1 251217Z 29005KT 13/08 A2988 RMK A01 T01260081  RH  074%=      5-min Rain = 0
KQU1 251218Z 29006KT 13/08 A2988 RMK A01 T01260080  RH  074%=      5-min Rain = 0
KQU1 251219Z 30004KT 13/08 A2988 RMK A01 T01260080  RH  074%=      5-min Rain = 0
KQU1 251220Z 30005KT 13/08 A2988 RMK A01 T01260080  RH  074%=      5-min Rain = 0
KQU1 251221Z 30004KT 13/08 A2988 RMK A01 T01260080  RH  074%=      5-min Rain = 0
KQU1 251222Z 30003KT 13/08 A2988 RMK A01 T01260081  RH  074%=      5-min Rain = 0
KQU1 251223Z 31005KT 13/08 A2988 RMK A01 T01260080  RH  074%=      5-min Rain = 0
KQU1 251224Z 30003KT 13/08 A2988 RMK A01 T01260080  RH  073%=      5-min Rain = 0
KQU1 251225Z 31003KT 13/08 A2988 RMK A01 T01270080  RH  073%=      5-min Rain = 0
KQU1 251226Z 30003KT 13/08 A2988 RMK A01 T01270080  RH  073%=      5-min Rain = 0
KQU1 251227Z 29005KT 13/08 A2988 RMK A01 T01270080  RH  073%=      5-min Rain = 0
KQU1 251228Z 29005KT 13/08 A2988 RMK A01 T01270079  RH  073%=      5-min Rain = 0
KQU1 251229Z 29005KT 13/08 A2988 RMK A01 T01270080  RH  073%=      5-min Rain = 0
KQU1 251230Z 30005KT 13/08 A2988 RMK A01 T01270080  RH  073%=      5-min Rain = 0
KQU1 251231Z 30005KT 13/08 A2988 RMK A01 T01270080  RH  073%=      5-min Rain = 0
KQU1 251232Z 30005KT 13/08 A2988 RMK A01 T01270081  RH  073%=      5-min Rain = 0
KQU1 251233Z 30005KT 13/08 A2988 RMK A01 T01270081  RH  073%=      5-min Rain = 0
KQU1 251234Z 30006KT 13/08 A2988 RMK A01 T01280081  RH  073%=      5-min Rain = 0
KQU1 251235Z 30007KT 13/08 A2989 RMK A01 T01280081  RH  073%=      5-min Rain = 0
KQU1 251236Z 30007KT 13/08 A2989 RMK A01 T01280082  RH  074%=      5-min Rain = 0
KQU1 251237Z 29008KT 13/08 A2989 RMK A01 T01280081  RH  073%=      5-min Rain = 0
KQU1 251238Z 29007KT 13/08 A2989 RMK A01 T01280082  RH  073%=      5-min Rain = 0
KQU1 251239Z 28009KT 13/08 A2989 RMK A01 T01290082  RH  073%=      5-min Rain = 0
KQU1 251240Z 28010KT 13/08 A2989 RMK A01 T01300081  RH  072%=      5-min Rain = 0
KQU1 251241Z 28011KT 13/08 A2989 RMK A01 T01300081  RH  072%=      5-min Rain = 0
KQU1 251242Z 28009KT 13/08 A2989 RMK A01 T01320080  RH  071%=      5-min Rain = 0
KQU1 251243Z 28009KT 13/08 A2989 RMK A01 T01330081  RH  071%=      5-min Rain = 0
KQU1 251244Z 28009KT 13/08 A2989 RMK A01 T01330081  RH  071%=      5-min Rain = 0
KQU1 251245Z 28010KT 13/08 A2989 RMK A01 T01340081  RH  070%=      5-min Rain = 0
KQU1 251246Z 28010KT 14/08 A2989 RMK A01 T01350080  RH  069%=      5-min Rain = 0
KQU1 251247Z 28009KT 14/08 A2989 RMK A01 T01360080  RH  069%=      5-min Rain = 0
KQU1 251248Z 28009KT 14/08 A2989 RMK A01 T01370081  RH  069%=      5-min Rain = 0
KQU1 251249Z 28008KT 14/08 A2989 RMK A01 T01370081  RH  069%=      5-min Rain = 0
KQU1 251250Z 28008KT 14/08 A2989 RMK A01 T01380081  RH  068%=      5-min Rain = 0
KQU1 251251Z 28007KT 14/08 A2989 RMK A01 T01380081  RH  069%=      5-min Rain = 0
KQU1 251252Z 29007KT 14/08 A2989 RMK A01 T01380081  RH  068%=      5-min Rain = 0
KQU1 251253Z 29005KT 14/08 A2989 RMK A01 T01390082  RH  069%=      5-min Rain = 0
KQU1 251254Z 28005KT 14/08 A2989 RMK A01 T01390081  RH  068%=      5-min Rain = 0
KQU1 251255Z 28005KT 14/08 A2989 RMK A01 T01390082  RH  068%=      5-min Rain = 0
KQU1 251256Z 28005KT 14/08 A2989 RMK A01 T01400081  RH  067%=      5-min Rain = 0
KQU1 251257Z 27006KT 14/08 A2989 RMK A01 T01400083  RH  068%=      5-min Rain = 0
KQU1 251258Z 27006KT 14/08 A2989 RMK A01 T01410083  RH  068%=      5-min Rain = 0
KQU1 251259Z 27006KT 14/08 A2989 RMK A01 T01410084  RH  068%=      5-min Rain = 0
KQU1 251300Z 27006KT 14/08 A2989 RMK A01 T01410084  RH  068%=      5-min Rain = 0
KQU1 251301Z 27008KT 14/08 A299 RMK A01 T01410084  RH  068%=      5-min Rain = 0
KQU1 251302Z 27009KT 14/08 A299 RMK A01 T01420083  RH  068%=      5-min Rain = 0
KQU1 251303Z 27009KT 14/08 A299 RMK A01 T01420082  RH  067%=      5-min Rain = 0
KQU1 251304Z 27009KT 14/08 A299 RMK A01 T01420083  RH  067%=      5-min Rain = 0
KQU1 251305Z 28011KT 14/08 A2989 RMK A01 T01430082  RH  067%=      5-min Rain = 0
KQU1 251306Z 28011KT 14/08 A299 RMK A01 T01440083  RH  067%=      5-min Rain = 0
KQU1 251307Z 28014KT 14/08 A2989 RMK A01 T01440081  RH  066%=      5-min Rain = 0
KQU1 251308Z 28010KT 15/08 A2989 RMK A01 T01450084  RH  067%=      5-min Rain = 0
KQU1 251309Z 29013KT 15/08 A2989 RMK A01 T01450084  RH  067%=      5-min Rain = 0
KQU1 251310Z 29014KT 15/09 A2989 RMK A01 T01460085  RH  067%=      5-min Rain = 0
KQU1 251311Z 29015KT 15/09 A2989 RMK A01 T01460085  RH  066%=      5-min Rain = 0
KQU1 251312Z 29015KT 15/08 A2989 RMK A01 T01470084  RH  066%=      5-min Rain = 0
KQU1 251313Z 29012KT 15/08 A2989 RMK A01 T01480084  RH  066%=      5-min Rain = 0
KQU1 251314Z 29011KT 15/09 A2989 RMK A01 T01480086  RH  066%=      5-min Rain = 0
KQU1 251315Z 29012KT 15/09 A2989 RMK A01 T01490086  RH  066%=      5-min Rain = 0
KQU1 251316Z 29012KT 15/09 A2989 RMK A01 T01490086  RH  066%=      5-min Rain = 0
KQU1 251317Z 29012KT 15/09 A2989 RMK A01 T01500086  RH  066%=      5-min Rain = 0
KQU1 251318Z 29010KT 15/09 A2989 RMK A01 T01510087  RH  066%=      5-min Rain = 0
KQU1 251319Z 29010KT 15/09 A2989 RMK A01 T01520089  RH  066%=      5-min Rain = 0
KQU1 251320Z 29013KT 15/09 A2989 RMK A01 T01530087  RH  065%=      5-min Rain = 0
KQU1 251321Z 30011KT 15/09 A299 RMK A01 T01530088  RH  065%=      5-min Rain = 0
KQU1 251322Z 30013KT 15/09 A299 RMK A01 T01540087  RH  064%=      5-min Rain = 0
KQU1 251323Z 30011KT 16/09 A299 RMK A01 T01550088  RH  064%=      5-min Rain = 0
KQU1 251324Z 30011KT 16/09 A299 RMK A01 T01550087  RH  064%=      5-min Rain = 0
KQU1 251325Z 29011KT 16/09 A299 RMK A01 T01560088  RH  064%=      5-min Rain = 0
KQU1 251326Z 29012KT 16/09 A299 RMK A01 T01570087  RH  063%=      5-min Rain = 0
KQU1 251327Z 29013KT 16/09 A299 RMK A01 T01580087  RH  063%=      5-min Rain = 0
KQU1 251328Z 29011KT 16/09 A299 RMK A01 T01590088  RH  063%=      5-min Rain = 0
KQU1 251329Z 29009KT 16/09 A299 RMK A01 T01600088  RH  063%=      5-min Rain = 0
KQU1 251330Z 29010KT 16/09 A299 RMK A01 T01610090  RH  063%=      5-min Rain = 0
KQU1 251331Z 29010KT 16/09 A299 RMK A01 T01610089  RH  062%=      5-min Rain = 0
KQU1 251332Z 29011KT 16/09 A299 RMK A01 T01620089  RH  062%=      5-min Rain = 0
KQU1 251333Z 29010KT 16/09 A299 RMK A01 T01620090  RH  062%=      5-min Rain = 0
KQU1 251334Z 29011G17KT 16/09 A299 RMK A01 T01630089  RH  062%=      5-min Rain = 0
KQU1 251335Z 29010KT 16/09 A299 RMK A01 T01640090  RH  061%=      5-min Rain = 0
KQU1 251336Z 29012KT 17/09 A299 RMK A01 T01650088  RH  060%=      5-min Rain = 0
KQU1 251337Z 29010KT 17/09 A299 RMK A01 T01660090  RH  060%=      5-min Rain = 0
KQU1 251338Z 29013KT 17/09 A299 RMK A01 T01670090  RH  060%=      5-min Rain = 0
KQU1 251339Z 29012KT 17/09 A299 RMK A01 T01680090  RH  060%=      5-min Rain = 0
KQU1 251340Z 29013KT 17/09 A299 RMK A01 T01680090  RH  060%=      5-min Rain = 0
KQU1 251341Z 29013KT 17/09 A299 RMK A01 T01680090  RH  060%=      5-min Rain = 0
KQU1 251342Z 29013KT 17/09 A299 RMK A01 T01690090  RH  060%=      5-min Rain = 0
KQU1 251343Z 30013KT 17/09 A299 RMK A01 T01690091  RH  060%=      5-min Rain = 0
KQU1 251344Z 29012KT 17/09 A299 RMK A01 T01680092  RH  061%=      5-min Rain = 0
KQU1 251345Z 30011KT 17/09 A299 RMK A01 T01690093  RH  061%=      5-min Rain = 0
KQU1 251346Z 30011KT 17/09 A299 RMK A01 T01700092  RH  060%=      5-min Rain = 0
KQU1 251347Z 31011KT 17/09 A299 RMK A01 T01710092  RH  060%=      5-min Rain = 0
KQU1 251348Z 30011KT 17/09 A299 RMK A01 T01710091  RH  059%=      5-min Rain = 0
KQU1 251349Z 31010KT 17/09 A299 RMK A01 T01720093  RH  059%=      5-min Rain = 0
KQU1 251350Z 31013KT 17/09 A299 RMK A01 T01730092  RH  059%=      5-min Rain = 0
KQU1 251351Z 30013KT 17/09 A299 RMK A01 T01730092  RH  059%=      5-min Rain = 0
KQU1 251352Z 30014KT 17/09 A299 RMK A01 T01720091  RH  059%=      5-min Rain = 0
KQU1 251353Z 30013KT 17/09 A2991 RMK A01 T01720093  RH  059%=      5-min Rain = 0
KQU1 251354Z 30012KT 17/09 A2991 RMK A01 T01720093  RH  060%=      5-min Rain = 0
KQU1 251355Z 30012KT 17/09 A2991 RMK A01 T01720093  RH  060%=      5-min Rain = 0
KQU1 251356Z 30014KT 17/09 A2991 RMK A01 T01710091  RH  059%=      5-min Rain = 0
KQU1 251357Z 30012KT 17/09 A2991 RMK A01 T01710094  RH  061%=      5-min Rain = 0
KQU1 251358Z 30011KT 17/10 A2991 RMK A01 T01710095  RH  061%=      5-min Rain = 0
KQU1 251359Z 29012KT 17/10 A2991 RMK A01 T01710095  RH  061%=      5-min Rain = 0
KQU1 251400Z 30011KT 17/10 A2991 RMK A01 T01710096  RH  061%=      5-min Rain = 0
KQU1 251401Z 30010KT 17/10 A2991 RMK A01 T01720098  RH  062%=      5-min Rain = 0
KQU1 251402Z 30009KT 17/10 A2991 RMK A01 T01730100  RH  062%=      5-min Rain = 0
KQU1 251403Z 30008KT 17/10 A2991 RMK A01 T01730099  RH  062%=      5-min Rain = 0
KQU1 251404Z 30008KT 17/10 A2991 RMK A01 T01740102  RH  062%=      5-min Rain = 0
KQU1 251405Z 31007KT 18/10 A2991 RMK A01 T01760102  RH  062%=      5-min Rain = 0
KQU1 251406Z 31007KT 18/10 A2991 RMK A01 T01780101  RH  061%=      5-min Rain = 0
KQU1 251407Z 31008KT 18/10 A2991 RMK A01 T01800100  RH  059%=      5-min Rain = 0
KQU1 251408Z 31010KT 18/09 A2991 RMK A01 T01810093  RH  056%=      5-min Rain = 0
KQU1 251409Z 31011KT 18/09 A2991 RMK A01 T01820093  RH  056%=      5-min Rain = 0
KQU1 251410Z 32010KT 18/09 A2991 RMK A01 T01820091  RH  055%=      5-min Rain = 0
KQU1 251411Z 32010KT 18/09 A2991 RMK A01 T01830091  RH  055%=      5-min Rain = 0
KQU1 251412Z 33010KT 18/09 A2991 RMK A01 T01830090  RH  055%=      5-min Rain = 0
KQU1 251413Z 32010KT 18/09 A2991 RMK A01 T01830089  RH  054%=      5-min Rain = 0
KQU1 251414Z 33009KT 18/09 A2991 RMK A01 T01830090  RH  054%=      5-min Rain = 0
KQU1 251415Z 33008KT 18/09 A2991 RMK A01 T01840089  RH  054%=      5-min Rain = 0
KQU1 251416Z 34009KT 18/09 A2991 RMK A01 T01840086  RH  053%=      5-min Rain = 0
KQU1 251417Z 33009KT 18/09 A2991 RMK A01 T01840088  RH  053%=      5-min Rain = 0
KQU1 251418Z 33010KT 18/09 A2991 RMK A01 T01840086  RH  053%=      5-min Rain = 0
KQU1 251419Z 34006KT 18/09 A2992 RMK A01 T01840089  RH  054%=      5-min Rain = 0
KQU1 251420Z 34009KT 19/09 A2992 RMK A01 T01850088  RH  053%=      5-min Rain = 0
KQU1 251421Z 33007KT 18/09 A2992 RMK A01 T01840087  RH  053%=      5-min Rain = 0
KQU1 251422Z 32010KT 18/09 A2992 RMK A01 T01840088  RH  053%=      5-min Rain = 0
KQU1 251423Z 33008KT 18/09 A2992 RMK A01 T01840089  RH  054%=      5-min Rain = 0
KQU1 251424Z 33008KT 19/09 A2992 RMK A01 T01850089  RH  054%=      5-min Rain = 0
KQU1 251425Z 34007KT 19/09 A2992 RMK A01 T01850089  RH  054%=      5-min Rain = 0
KQU1 251426Z 33008KT 19/09 A2992 RMK A01 T01850089  RH  054%=      5-min Rain = 0
KQU1 251427Z 33006KT 19/09 A2992 RMK A01 T01850092  RH  054%=      5-min Rain = 0
KQU1 251428Z 31008KT 19/09 A2992 RMK A01 T01850093  RH  055%=      5-min Rain = 0
KQU1 251429Z 31007KT 19/10 A2992 RMK A01 T01860095  RH  055%=      5-min Rain = 0
KQU1 251430Z 32007KT 19/09 A2992 RMK A01 T01860094  RH  055%=      5-min Rain = 0
KQU1 251431Z 31008KT 19/09 A2992 RMK A01 T01860092  RH  054%=      5-min Rain = 0
KQU1 251432Z 32008KT 19/09 A2992 RMK A01 T01870092  RH  054%=      5-min Rain = 0
KQU1 251433Z 32007KT 19/10 A2992 RMK A01 T01870095  RH  055%=      5-min Rain = 0
KQU1 251434Z 32006KT 19/10 A2992 RMK A01 T01880098  RH  056%=      5-min Rain = 0
KQU1 251435Z 32005KT 19/10 A2992 RMK A01 T01890096  RH  055%=      5-min Rain = 0
KQU1 251436Z 32004KT 19/10 A2992 RMK A01 T01900097  RH  055%=      5-min Rain = 0
KQU1 251437Z 35004KT 19/10 A2992 RMK A01 T01910096  RH  054%=      5-min Rain = 0
KQU1 251438Z 02003KT 19/09 A2992 RMK A01 T01920093  RH  052%=      5-min Rain = 0
KQU1 251439Z 35004KT 19/10 A2992 RMK A01 T01940095  RH  053%=      5-min Rain = 0
KQU1 251440Z 00005KT 20/10 A2992 RMK A01 T01950099  RH  054%=      5-min Rain = 0
KQU1 251441Z 36005KT 20/10 A2992 RMK A01 T01960095  RH  052%=      5-min Rain = 0
KQU1 251442Z 00004KT 20/10 A2992 RMK A01 T01960095  RH  052%=      5-min Rain = 0
KQU1 251443Z 35004KT 20/10 A2992 RMK A01 T01960095  RH  052%=      5-min Rain = 0
KQU1 251444Z 35004KT 20/10 A2992 RMK A01 T01970096  RH  052%=      5-min Rain = 0
KQU1 251445Z 35006KT 20/09 A2992 RMK A01 T01970090  RH  050%=      5-min Rain = 0
KQU1 251446Z 34006KT 20/09 A2992 RMK A01 T01970089  RH  050%=      5-min Rain = 0
KQU1 251447Z 35005KT 20/09 A2992 RMK A01 T01970089  RH  050%=      5-min Rain = 0
KQU1 251448Z 35005KT 20/09 A2992 RMK A01 T01970094  RH  051%=      5-min Rain = 0
KQU1 251449Z 34005KT 20/09 A2992 RMK A01 T01980092  RH  050%=      5-min Rain = 0
KQU1 251450Z 34005KT 20/09 A2992 RMK A01 T01990093  RH  050%=      5-min Rain = 0
KQU1 251451Z 34005KT 20/09 A2992 RMK A01 T02000094  RH  051%=      5-min Rain = 0
KQU1 251452Z 33008KT 20/09 A2993 RMK A01 T02000087  RH  048%=      5-min Rain = 0
KQU1 251453Z 34008KT 20/09 A2993 RMK A01 T02000089  RH  049%=      5-min Rain = 0
KQU1 251454Z 34008KT 20/09 A2993 RMK A01 T02000087  RH  048%=      5-min Rain = 0
KQU1 251455Z 34007KT 20/09 A2993 RMK A01 T02000086  RH  048%=      5-min Rain = 0
KQU1 251456Z 35007KT 20/09 A2993 RMK A01 T02000088  RH  048%=      5-min Rain = 0
KQU1 251457Z 35009KT 20/08 A2993 RMK A01 T02010084  RH  047%=      5-min Rain = 0
KQU1 251458Z 34006KT 20/09 A2993 RMK A01 T02020085  RH  047%=      5-min Rain = 0
KQU1 251459Z 34008KT 20/09 A2993 RMK A01 T02030089  RH  048%=      5-min Rain = 0
KQU1 251500Z 34008KT 20/08 A2993 RMK A01 T02040083  RH  046%=      5-min Rain = 0
KQU1 251501Z 34007KT 21/09 A2993 RMK A01 T02050087  RH  047%=      5-min Rain = 0
KQU1 251502Z 35006KT 21/09 A2993 RMK A01 T02060092  RH  048%=      5-min Rain = 0
KQU1 251503Z 34006KT 21/09 A2993 RMK A01 T02070089  RH  047%=      5-min Rain = 0
KQU1 251504Z 35005KT 21/09 A2993 RMK A01 T02070085  RH  045%=      5-min Rain = 0
KQU1 251505Z 36008KT 21/08 A2993 RMK A01 T02080081  RH  044%=      5-min Rain = 0
KQU1 251506Z 00005KT 21/08 A2993 RMK A01 T02080078  RH  043%=      5-min Rain = 0
KQU1 251507Z 35005KT 21/09 A2993 RMK A01 T02090085  RH  045%=      5-min Rain = 0
KQU1 251508Z 00006G12KT 21/08 A2993 RMK A01 T02100083  RH  044%=      5-min Rain = 0
KQU1 251509Z 35008KT 21/08 A2993 RMK A01 T02110076  RH  042%=      5-min Rain = 0
KQU1 251510Z 01004G10KT 21/08 A2993 RMK A01 T02110080  RH  043%=      5-min Rain = 0
KQU1 251511Z 01005KT 21/08 A2993 RMK A01 T02120080  RH  043%=      5-min Rain = 0
KQU1 251512Z 00004KT 21/08 A2993 RMK A01 T02120079  RH  042%=      5-min Rain = 0
KQU1 251513Z 00004G9KT 21/08 A2993 RMK A01 T02130081  RH  043%=      5-min Rain = 0
KQU1 251514Z 01005G10KT 21/08 A2993 RMK A01 T02130079  RH  042%=      5-min Rain = 0
KQU1 251515Z 36005G10KT 21/08 A2993 RMK A01 T02130083  RH  043%=      5-min Rain = 0
KQU1 251516Z 35008KT 21/07 A2993 RMK A01 T02130074  RH  041%=      5-min Rain = 0
KQU1 251517Z 00008KT 21/08 A2993 RMK A01 T02120077  RH  042%=      5-min Rain = 0
KQU1 251518Z 01007KT 21/08 A2993 RMK A01 T02120078  RH  042%=      5-min Rain = 0
KQU1 251519Z 02007KT 21/07 A2993 RMK A01 T02120073  RH  041%=      5-min Rain = 0
KQU1 251520Z 00007KT 21/08 A2993 RMK A01 T02120075  RH  041%=      5-min Rain = 0
KQU1 251521Z 02004KT 21/08 A2993 RMK A01 T02120076  RH  042%=      5-min Rain = 0
KQU1 251522Z 03003G8KT 21/08 A2993 RMK A01 T02120082  RH  043%=      5-min Rain = 0
KQU1 251523Z 02006KT 21/08 A2993 RMK A01 T02130082  RH  043%=      5-min Rain = 0
KQU1 251524Z 00004KT 21/08 A2993 RMK A01 T02140081  RH  042%=      5-min Rain = 0
KQU1 251525Z 34005G10KT 21/09 A2993 RMK A01 T02140085  RH  044%=      5-min Rain = 0
KQU1 251526Z 35008KT 21/08 A2994 RMK A01 T02140080  RH  042%=      5-min Rain = 0
KQU1 251527Z 36010KT 21/08 A2994 RMK A01 T02140079  RH  042%=      5-min Rain = 0
KQU1 251528Z 35009KT 21/08 A2994 RMK A01 T02120077  RH  042%=      5-min Rain = 0
KQU1 251529Z 01006G11KT 21/08 A2994 RMK A01 T02120082  RH  043%=      5-min Rain = 0
KQU1 251530Z 36006KT 21/08 A2994 RMK A01 T02130084  RH  044%=      5-min Rain = 0
KQU1 251531Z 00006G11KT 21/08 A2994 RMK A01 T02130083  RH  043%=      5-min Rain = 0
KQU1 251532Z 03006G11KT 21/09 A2994 RMK A01 T02130085  RH  044%=      5-min Rain = 0
KQU1 251533Z 35006KT 21/09 A2994 RMK A01 T02140086  RH  044%=      5-min Rain = 0
KQU1 251534Z 01005G11KT 21/09 A2994 RMK A01 T02140088  RH  044%=      5-min Rain = 0
KQU1 251535Z 01007G12KT 21/08 A2994 RMK A01 T02140083  RH  043%=      5-min Rain = 0
KQU1 251536Z 02006G11KT 22/09 A2994 RMK A01 T02150086  RH  044%=      5-min Rain = 0
KQU1 251537Z 03008KT 21/08 A2994 RMK A01 T02140081  RH  042%=      5-min Rain = 0
KQU1 251538Z 03009KT 21/08 A2994 RMK A01 T02140078  RH  042%=      5-min Rain = 0
KQU1 251539Z 02006G11KT 21/08 A2994 RMK A01 T02130082  RH  043%=      5-min Rain = 0
KQU1 251540Z 36004KT 21/09 A2994 RMK A01 T02130088  RH  045%=      5-min Rain = 0
KQU1 251541Z 02003KT 21/09 A2994 RMK A01 T02140090  RH  045%=      5-min Rain = 0
KQU1 251542Z 03004KT 22/09 A2994 RMK A01 T02150093  RH  046%=      5-min Rain = 0
KQU1 251543Z 00008KT 22/09 A2994 RMK A01 T02160086  RH  043%=      5-min Rain = 0
KQU1 251544Z 01005KT 22/09 A2994 RMK A01 T02160085  RH  043%=      5-min Rain = 0
KQU1 251545Z 02005G10KT 22/09 A2994 RMK A01 T02150086  RH  043%=      5-min Rain = 0
KQU1 251546Z 02006KT 22/08 A2994 RMK A01 T02150082  RH  043%=      5-min Rain = 0
KQU1 251547Z 01008KT 21/09 A2994 RMK A01 T02140085  RH  043%=      5-min Rain = 0
KQU1 251548Z 36005KT 22/09 A2994 RMK A01 T02150092  RH  045%=      5-min Rain = 0
KQU1 251549Z 02005KT 22/09 A2994 RMK A01 T02160086  RH  043%=      5-min Rain = 0
KQU1 251550Z 02005G10KT 22/09 A2994 RMK A01 T02160086  RH  043%=      5-min Rain = 0
KQU1 251551Z 02004KT 22/09 A2994 RMK A01 T02160091  RH  045%=      5-min Rain = 0
KQU1 251552Z 02007KT 22/08 A2994 RMK A01 T02160083  RH  042%=      5-min Rain = 0
KQU1 251553Z 02008KT 22/08 A2994 RMK A01 T02150084  RH  043%=      5-min Rain = 0
KQU1 251554Z 02006KT 22/09 A2994 RMK A01 T02150088  RH  044%=      5-min Rain = 0
KQU1 251555Z 36003KT 22/09 A2994 RMK A01 T02160092  RH  045%=      5-min Rain = 0
KQU1 251556Z 02005KT 22/09 A2994 RMK A01 T02170090  RH  044%=      5-min Rain = 0
KQU1 251557Z 01005KT 22/09 A2994 RMK A01 T02180087  RH  043%=      5-min Rain = 0
KQU1 251558Z 00007KT 22/09 A2994 RMK A01 T02170087  RH  043%=      5-min Rain = 0
KQU1 251559Z 02005KT 22/09 A2994 RMK A01 T02170087  RH  043%=      5-min Rain = 0
KQU1 251600Z 02004KT 22/09 A2994 RMK A01 T02180088  RH  043%=      5-min Rain = 0
KQU1 251601Z 02004KT 22/10 A2994 RMK A01 T02190097  RH  046%=      5-min Rain = 0
KQU1 251602Z 02006KT 22/09 A2994 RMK A01 T02200089  RH  043%=      5-min Rain = 0
KQU1 251603Z 03005KT 22/09 A2994 RMK A01 T02210092  RH  044%=      5-min Rain = 0
KQU1 251604Z 04005KT 22/09 A2994 RMK A01 T02220091  RH  043%=      5-min Rain = 0
KQU1 251605Z 03005KT 22/09 A2994 RMK A01 T02220089  RH  043%=      5-min Rain = 0
KQU1 251606Z 34003KT 22/10 A2994 RMK A01 T02220100  RH  046%=      5-min Rain = 0
KQU1 251607Z 35003KT 22/09 A2994 RMK A01 T02230091  RH  043%=      5-min Rain = 0
KQU1 251608Z 34006KT 22/09 A2994 RMK A01 T02230090  RH  042%=      5-min Rain = 0
KQU1 251609Z 34007KT 22/08 A2994 RMK A01 T02230077  RH  039%=      5-min Rain = 0
KQU1 251610Z 35005KT 22/08 A2994 RMK A01 T02220075  RH  039%=      5-min Rain = 0
KQU1 251611Z 34004KT 22/08 A2994 RMK A01 T02220078  RH  040%=      5-min Rain = 0
KQU1 251612Z 35007G12KT 22/09 A2994 RMK A01 T02230090  RH  043%=      5-min Rain = 0
KQU1 251613Z 33009KT 22/09 A2994 RMK A01 T02240090  RH  042%=      5-min Rain = 0
KQU1 251614Z 33008KT 23/09 A2995 RMK A01 T02250086  RH  041%=      5-min Rain = 0
KQU1 251615Z 33013KT 23/09 A2995 RMK A01 T02260085  RH  041%=      5-min Rain = 0
KQU1 251616Z 33015KT 23/08 A2995 RMK A01 T02260078  RH  039%=      5-min Rain = 0
KQU1 251617Z 33013KT 23/08 A2996 RMK A01 T02250082  RH  040%=      5-min Rain = 0
KQU1 251618Z 33015KT 23/08 A2996 RMK A01 T02250081  RH  040%=      5-min Rain = 0
KQU1 251619Z 32017G23KT 23/08 A2996 RMK A01 T02250083  RH  040%=      5-min Rain = 0
KQU1 251620Z 34011KT 23/08 A2996 RMK A01 T02260083  RH  040%=      5-min Rain = 0
KQU1 251621Z 35012KT 23/08 A2996 RMK A01 T02250082  RH  040%=      5-min Rain = 0
KQU1 251622Z 35009G16KT 23/09 A2995 RMK A01 T02250085  RH  041%=      5-min Rain = 0
KQU1 251623Z 35005KT 23/08 A2995 RMK A01 T02250084  RH  041%=      5-min Rain = 0
KQU1 251624Z 34007KT 23/08 A2995 RMK A01 T02250084  RH  040%=      5-min Rain = 0
KQU1 251625Z 36006KT 23/09 A2995 RMK A01 T02260085  RH  041%=      5-min Rain = 0
KQU1 251626Z 32006KT 23/09 A2996 RMK A01 T02260091  RH  042%=      5-min Rain = 0
KQU1 251627Z 33008KT 23/09 A2996 RMK A01 T02280091  RH  042%=      5-min Rain = 0
KQU1 251628Z 32009KT 23/09 A2996 RMK A01 T02280087  RH  041%=      5-min Rain = 0
KQU1 251629Z 34009KT 23/09 A2996 RMK A01 T02270086  RH  040%=      5-min Rain = 0
KQU1 251630Z 32009KT 23/09 A2996 RMK A01 T02270089  RH  041%=      5-min Rain = 0
KQU1 251631Z 34007KT 23/09 A2996 RMK A01 T02280093  RH  042%=      5-min Rain = 0
KQU1 251632Z 33006KT 23/09 A2996 RMK A01 T02280085  RH  040%=      5-min Rain = 0
KQU1 251633Z 33007KT 23/08 A2996 RMK A01 T02280083  RH  039%=      5-min Rain = 0
KQU1 251634Z 34011KT 23/08 A2996 RMK A01 T02280077  RH  038%=      5-min Rain = 0
KQU1 251635Z 32010KT 23/09 A2996 RMK A01 T02270085  RH  040%=      5-min Rain = 0
KQU1 251636Z 32010KT 23/08 A2996 RMK A01 T02280083  RH  039%=      5-min Rain = 0
KQU1 251637Z 33007KT 23/08 A2996 RMK A01 T02280082  RH  039%=      5-min Rain = 0
KQU1 251638Z 33007KT 23/09 A2996 RMK A01 T02280085  RH  040%=      5-min Rain = 0
KQU1 251639Z 01008KT 23/08 A2996 RMK A01 T02290080  RH  038%=      5-min Rain = 0
KQU1 251640Z 35009KT 23/08 A2996 RMK A01 T02280079  RH  038%=      5-min Rain = 0
KQU1 251641Z 36007KT 23/08 A2996 RMK A01 T02280080  RH  039%=      5-min Rain = 0
KQU1 251642Z 35007KT 23/09 A2996 RMK A01 T02280086  RH  040%=      5-min Rain = 0
KQU1 251643Z 34006G11KT 23/09 A2996 RMK A01 T02280088  RH  041%=      5-min Rain = 0
KQU1 251644Z 34010KT 23/09 A2996 RMK A01 T02280088  RH  041%=      5-min Rain = 0
KQU1 251645Z 36008KT 23/09 A2997 RMK A01 T02290086  RH  040%=      5-min Rain = 0
KQU1 251646Z 35006G11KT 23/09 A2996 RMK A01 T02280087  RH  041%=      5-min Rain = 0
KQU1 251647Z 00009G17KT 23/09 A2997 RMK A01 T02290088  RH  041%=      5-min Rain = 0
KQU1 251648Z 00008G13KT 23/09 A2997 RMK A01 T02290093  RH  042%=      5-min Rain = 0
KQU1 251649Z 35007KT 23/09 A2996 RMK A01 T02290085  RH  040%=      5-min Rain = 0
KQU1 251650Z 35008KT 23/08 A2996 RMK A01 T02280079  RH  039%=      5-min Rain = 0
KQU1 251651Z 36010KT 23/08 A2996 RMK A01 T02280080  RH  039%=      5-min Rain = 0
KQU1 251652Z 36007G12KT 23/08 A2996 RMK A01 T02280082  RH  039%=      5-min Rain = 0
KQU1 251653Z 35010G15KT 23/09 A2996 RMK A01 T02280086  RH  040%=      5-min Rain = 0
KQU1 251654Z 35010KT 23/09 A2996 RMK A01 T02280088  RH  041%=      5-min Rain = 0
KQU1 251655Z 01009G14KT 23/09 A2996 RMK A01 T02290087  RH  040%=      5-min Rain = 0
KQU1 251656Z 36007G13KT 23/09 A2996 RMK A01 T02290089  RH  041%=      5-min Rain = 0
KQU1 251657Z 36010KT 23/08 A2996 RMK A01 T02290081  RH  039%=      5-min Rain = 0
KQU1 251658Z 35007KT 23/08 A2996 RMK A01 T02290084  RH  039%=      5-min Rain = 0
KQU1 251659Z 35009KT 23/08 A2996 RMK A01 T02290083  RH  039%=      5-min Rain = 0
KQU1 251700Z 00007G13KT 23/09 A2996 RMK A01 T02290088  RH  040%=      5-min Rain = 0
KQU1 251701Z 35008G13KT 23/09 A2996 RMK A01 T02300088  RH  040%=      5-min Rain = 0
KQU1 251702Z 34006G14KT 23/09 A2997 RMK A01 T02310093  RH  041%=      5-min Rain = 0
KQU1 251703Z 34008KT 23/09 A2997 RMK A01 T02310090  RH  041%=      5-min Rain = 0
KQU1 251704Z 35006G12KT 23/09 A2997 RMK A01 T02320091  RH  041%=      5-min Rain = 0
KQU1 251705Z 34012KT 23/09 A2997 RMK A01 T02310091  RH  041%=      5-min Rain = 0
KQU1 251706Z 34011KT 23/09 A2997 RMK A01 T02310091  RH  041%=      5-min Rain = 0
KQU1 251707Z 34011G16KT 23/09 A2997 RMK A01 T02300089  RH  041%=      5-min Rain = 0
KQU1 251708Z 34009KT 23/10 A2997 RMK A01 T02300098  RH  043%=      5-min Rain = 0
KQU1 251709Z 35009KT 23/10 A2997 RMK A01 T02310095  RH  042%=      5-min Rain = 0
KQU1 251710Z 34009G17KT 23/10 A2997 RMK A01 T02310095  RH  042%=      5-min Rain = 0
KQU1 251711Z 34012KT 23/09 A2997 RMK A01 T02310092  RH  041%=      5-min Rain = 0
KQU1 251712Z 34012KT 23/09 A2997 RMK A01 T02300088  RH  040%=      5-min Rain = 0
KQU1 251713Z 34008KT 23/09 A2997 RMK A01 T02290092  RH  042%=      5-min Rain = 0
KQU1 251714Z 35010KT 23/09 A2997 RMK A01 T02300090  RH  041%=      5-min Rain = 0
KQU1 251715Z 35009KT 23/10 A2997 RMK A01 T02310095  RH  042%=      5-min Rain = 0
KQU1 251716Z 33013KT 23/09 A2997 RMK A01 T02310090  RH  041%=      5-min Rain = 0
KQU1 251717Z 33011G16KT 23/09 A2997 RMK A01 T02300093  RH  042%=      5-min Rain = 0
KQU1 251718Z 35011G16KT 23/09 A2997 RMK A01 T02310094  RH  042%=      5-min Rain = 0
KQU1 251719Z 34011KT 23/09 A2997 RMK A01 T02310090  RH  041%=      5-min Rain = 0
KQU1 251720Z 35010KT 23/09 A2997 RMK A01 T02310093  RH  041%=      5-min Rain = 0
KQU1 251721Z 34009KT 23/10 A2997 RMK A01 T02310095  RH  042%=      5-min Rain = 0
KQU1 251722Z 34012G17KT 23/09 A2998 RMK A01 T02320085  RH  039%=      5-min Rain = 0
KQU1 251723Z 34009KT 23/09 A2998 RMK A01 T02300085  RH  040%=      5-min Rain = 0
KQU1 251724Z 34009KT 23/09 A2997 RMK A01 T02310092  RH  041%=      5-min Rain = 0
KQU1 251725Z 34009KT 23/09 A2998 RMK A01 T02310091  RH  041%=      5-min Rain = 0
KQU1 251726Z 35009G16KT 23/09 A2998 RMK A01 T02320090  RH  040%=      5-min Rain = 0
KQU1 251727Z 35009KT 23/09 A2998 RMK A01 T02320087  RH  039%=      5-min Rain = 0
KQU1 251728Z 34007KT 23/09 A2998 RMK A01 T02320089  RH  040%=      5-min Rain = 0
KQU1 251729Z 35010KT 23/09 A2998 RMK A01 T02330087  RH  039%=      5-min Rain = 0
KQU1 251730Z 32009KT 23/08 A2998 RMK A01 T02330084  RH  039%=      5-min Rain = 0
KQU1 251731Z 33008KT 23/09 A2998 RMK A01 T02340092  RH  041%=      5-min Rain = 0
KQU1 251732Z 33009KT 24/09 A2998 RMK A01 T02350087  RH  039%=      5-min Rain = 0
KQU1 251733Z 35010G16KT 24/09 A2998 RMK A01 T02360089  RH  039%=      5-min Rain = 0
KQU1 251734Z 01010G15KT 24/08 A2998 RMK A01 T02360081  RH  037%=      5-min Rain = 0
KQU1 251735Z 35011KT 24/08 A2998 RMK A01 T02370084  RH  038%=      5-min Rain = 0
KQU1 251736Z 00008G13KT 24/09 A2998 RMK A01 T02370086  RH  038%=      5-min Rain = 0
KQU1 251737Z 34007G12KT 24/09 A2998 RMK A01 T02380090  RH  039%=      5-min Rain = 0
KQU1 251738Z 36006G12KT 24/09 A2997 RMK A01 T02390089  RH  038%=      5-min Rain = 0
KQU1 251739Z 36008G13KT 24/09 A2997 RMK A01 T02400092  RH  039%=      5-min Rain = 0
KQU1 251740Z 35013G20KT 24/08 A2998 RMK A01 T02400077  RH  035%=      5-min Rain = 0
KQU1 251741Z 34010KT 24/08 A2998 RMK A01 T02390082  RH  037%=      5-min Rain = 0
KQU1 251742Z 34010G15KT 24/08 A2998 RMK A01 T02390081  RH  037%=      5-min Rain = 0
KQU1 251743Z 34011KT 24/09 A2998 RMK A01 T02390086  RH  038%=      5-min Rain = 0
KQU1 251744Z 33012G17KT 24/08 A2998 RMK A01 T02390079  RH  036%=      5-min Rain = 0
KQU1 251745Z 35011G16KT 24/08 A2997 RMK A01 T02380082  RH  037%=      5-min Rain = 0
KQU1 251746Z 35009KT 24/09 A2997 RMK A01 T02380085  RH  038%=      5-min Rain = 0
KQU1 251747Z 34006G13KT 24/09 A2997 RMK A01 T02390088  RH  038%=      5-min Rain = 0
KQU1 251748Z 35010G15KT 24/09 A2997 RMK A01 T02410087  RH  038%=      5-min Rain = 0
KQU1 251749Z 35014KT 24/08 A2997 RMK A01 T02410077  RH  035%=      5-min Rain = 0
KQU1 251750Z 33015KT 24/08 A2997 RMK A01 T02390075  RH  035%=      5-min Rain = 0
KQU1 251751Z 33012KT 24/09 A2998 RMK A01 T02400085  RH  037%=      5-min Rain = 0
KQU1 251752Z 34012KT 24/08 A2998 RMK A01 T02400078  RH  035%=      5-min Rain = 0
KQU1 251753Z 00006KT 24/08 A2998 RMK A01 T02400078  RH  036%=      5-min Rain = 0
KQU1 251754Z 01003KT 24/09 A2998 RMK A01 T02410085  RH  037%=      5-min Rain = 0
KQU1 251755Z 00010KT 24/09 A2998 RMK A01 T02420085  RH  037%=      5-min Rain = 0
KQU1 251756Z 00009G18KT 24/08 A2998 RMK A01 T02420081  RH  036%=      5-min Rain = 0
KQU1 251757Z 00005G10KT 24/08 A2998 RMK A01 T02420083  RH  036%=      5-min Rain = 0
KQU1 251758Z 34007G13KT 24/09 A2998 RMK A01 T02420089  RH  038%=      5-min Rain = 0
KQU1 251759Z 35007G13KT 24/09 A2998 RMK A01 T02430087  RH  037%=      5-min Rain = 0
KQU1 251800Z 35011G19KT 24/08 A2998 RMK A01 T02430084  RH  036%=      5-min Rain = 0
KQU1 251801Z 34008G13KT 24/08 A2998 RMK A01 T02430081  RH  035%=      5-min Rain = 0
KQU1 251802Z 35009G17KT 24/08 A2998 RMK A01 T02420082  RH  036%=      5-min Rain = 0
KQU1 251803Z 36008G14KT 24/08 A2998 RMK A01 T02420084  RH  036%=      5-min Rain = 0
KQU1 251804Z 36013G18KT 24/08 A2998 RMK A01 T02420080  RH  035%=      5-min Rain = 0
KQU1 251805Z 35012G17KT 24/08 A2998 RMK A01 T02420083  RH  036%=      5-min Rain = 0
KQU1 251806Z 34011G17KT 24/09 A2998 RMK A01 T02410085  RH  037%=      5-min Rain = 0
KQU1 251807Z 35010KT 24/08 A2998 RMK A01 T02420081  RH  036%=      5-min Rain = 0
KQU1 251808Z 35009KT 24/08 A2998 RMK A01 T02410083  RH  036%=      5-min Rain = 0
KQU1 251809Z 35012KT 24/09 A2998 RMK A01 T02410085  RH  037%=      5-min Rain = 0
KQU1 251810Z 34013G18KT 24/09 A2998 RMK A01 T02410088  RH  038%=      5-min Rain = 0
KQU1 251811Z 36013G19KT 24/09 A2998 RMK A01 T02400087  RH  038%=      5-min Rain = 0
KQU1 251812Z 33012G19KT 24/09 A2998 RMK A01 T02410089  RH  038%=      5-min Rain = 0
KQU1 251813Z 36009G16KT 24/09 A2998 RMK A01 T02410091  RH  038%=      5-min Rain = 0
KQU1 251814Z 36009G19KT 24/09 A2998 RMK A01 T02420090  RH  038%=      5-min Rain = 0
KQU1 251815Z 34018G26KT 24/08 A2998 RMK A01 T02410084  RH  037%=      5-min Rain = 0
KQU1 251816Z 34015G20KT 24/08 A2998 RMK A01 T02390084  RH  037%=      5-min Rain = 0
KQU1 251817Z 35017G26KT 24/09 A2998 RMK A01 T02390087  RH  038%=      5-min Rain = 0
KQU1 251818Z 34016KT 24/09 A2998 RMK A01 T02390085  RH  037%=      5-min Rain = 0
KQU1 251819Z 36013G21KT 24/09 A2998 RMK A01 T02390088  RH  038%=      5-min Rain = 0
KQU1 251820Z 35012G20KT 24/09 A2998 RMK A01 T02390086  RH  038%=      5-min Rain = 0
KQU1 251821Z 34015G21KT 24/08 A2998 RMK A01 T02390084  RH  037%=      5-min Rain = 0
KQU1 251822Z 35011G21KT 24/09 A2998 RMK A01 T02390085  RH  037%=      5-min Rain = 0
KQU1 251823Z 35013G20KT 24/09 A2998 RMK A01 T02390085  RH  037%=      5-min Rain = 0
KQU1 251824Z 35011KT 24/08 A2998 RMK A01 T02400084  RH  037%=      5-min Rain = 0
KQU1 251825Z 35010G18KT 24/09 A2998 RMK A01 T02410091  RH  039%=      5-min Rain = 0
KQU1 251826Z 35016G21KT 24/08 A2998 RMK A01 T02420084  RH  037%=      5-min Rain = 0
KQU1 251827Z 35014G19KT 24/08 A2998 RMK A01 T02400081  RH  036%=      5-min Rain = 0
KQU1 251828Z 33017KT 24/08 A2998 RMK A01 T02390083  RH  037%=      5-min Rain = 0
KQU1 251829Z 34014KT 24/08 A2998 RMK A01 T02390082  RH  037%=      5-min Rain = 0
KQU1 251830Z 34011G19KT 24/09 A2998 RMK A01 T02390086  RH  038%=      5-min Rain = 0
KQU1 251831Z 34016G22KT 24/08 A2998 RMK A01 T02390082  RH  036%=      5-min Rain = 0
KQU1 251832Z 35012G20KT 24/09 A2998 RMK A01 T02400085  RH  037%=      5-min Rain = 0
KQU1 251833Z 34011G18KT 24/09 A2998 RMK A01 T02410087  RH  037%=      5-min Rain = 0
KQU1 251834Z 34015G21KT 24/09 A2998 RMK A01 T02410087  RH  037%=      5-min Rain = 0
KQU1 251835Z 35012G22KT 24/09 A2998 RMK A01 T02420086  RH  037%=      5-min Rain = 0
KQU1 251836Z 34011G17KT 24/09 A2998 RMK A01 T02430091  RH  038%=      5-min Rain = 0
KQU1 251837Z 00010G16KT 24/09 A2999 RMK A01 T02440093  RH  038%=      5-min Rain = 0
KQU1 251838Z 35015G21KT 24/09 A2998 RMK A01 T02440086  RH  037%=      5-min Rain = 0
KQU1 251839Z 35011G17KT 24/09 A2998 RMK A01 T02430090  RH  038%=      5-min Rain = 0
KQU1 251840Z 35016KT 24/09 A2998 RMK A01 T02430086  RH  037%=      5-min Rain = 0
KQU1 251841Z 36009G14KT 24/09 A2998 RMK A01 T02420088  RH  037%=      5-min Rain = 0
KQU1 251842Z 35011KT 24/09 A2998 RMK A01 T02430090  RH  038%=      5-min Rain = 0
KQU1 251843Z 36014G21KT 24/09 A2998 RMK A01 T02440089  RH  037%=      5-min Rain = 0
KQU1 251844Z 35018G27KT 24/08 A2998 RMK A01 T02440083  RH  036%=      5-min Rain = 0
KQU1 251845Z 34015G23KT 24/09 A2998 RMK A01 T02440085  RH  036%=      5-min Rain = 0
KQU1 251846Z 36007G17KT 25/09 A2998 RMK A01 T02450087  RH  037%=      5-min Rain = 0
KQU1 251847Z 36007G14KT 25/09 A2999 RMK A01 T02460087  RH  037%=      5-min Rain = 0
KQU1 251848Z 01011G21KT 25/08 A2999 RMK A01 T02460083  RH  036%=      5-min Rain = 0
KQU1 251849Z 01008G16KT 25/09 A2999 RMK A01 T02450085  RH  036%=      5-min Rain = 0
KQU1 251850Z 35011G21KT 25/09 A2999 RMK A01 T02460089  RH  037%=      5-min Rain = 0
KQU1 251851Z 00011G18KT 25/09 A2999 RMK A01 T02460090  RH  037%=      5-min Rain = 0
KQU1 251852Z 00011KT 25/09 A2999 RMK A01 T02460087  RH  036%=      5-min Rain = 0
KQU1 251853Z 01008G16KT 25/09 A2999 RMK A01 T02460089  RH  037%=      5-min Rain = 0
KQU1 251854Z 01008G18KT 25/09 A2999 RMK A01 T02460091  RH  037%=      5-min Rain = 0
KQU1 251855Z 34012G19KT 25/09 A2999 RMK A01 T02470092  RH  037%=      5-min Rain = 0
KQU1 251856Z 34017KT 25/08 A2999 RMK A01 T02450080  RH  035%=      5-min Rain = 0
KQU1 251857Z 34016G21KT 24/08 A2999 RMK A01 T02440084  RH  036%=      5-min Rain = 0
KQU1 251858Z 33019G25KT 24/09 A2999 RMK A01 T02430085  RH  036%=      5-min Rain = 0
KQU1 251859Z 34013G18KT 24/09 A2999 RMK A01 T02430090  RH  038%=      5-min Rain = 0
KQU1 251900Z 34010G16KT 25/09 A2999 RMK A01 T02450094  RH  038%=      5-min Rain = 0
KQU1 251901Z 34011KT 25/09 A2999 RMK A01 T02460092  RH  038%=      5-min Rain = 0
KQU1 251902Z 01007G17KT 25/10 A2999 RMK A01 T02470099  RH  039%=      5-min Rain = 0
KQU1 251903Z 35010G18KT 25/10 A2999 RMK A01 T02490098  RH  039%=      5-min Rain = 0
KQU1 251904Z 36016G22KT 25/09 A2999 RMK A01 T02480090  RH  037%=      5-min Rain = 0
KQU1 251905Z 35013G22KT 25/08 A30 RMK A01 T02470084  RH  036%=      5-min Rain = 0
KQU1 251906Z 00010G15KT 25/09 A30 RMK A01 T02460090  RH  037%=      5-min Rain = 0
KQU1 251907Z 00009G20KT 25/09 A30 RMK A01 T02460091  RH  037%=      5-min Rain = 0
KQU1 251908Z 36012G19KT 25/09 A30 RMK A01 T02450087  RH  036%=      5-min Rain = 0
KQU1 251909Z 33017KT 24/09 A30 RMK A01 T02440087  RH  037%=      5-min Rain = 0
KQU1 251910Z 34017G23KT 24/09 A30 RMK A01 T02430086  RH  037%=      5-min Rain = 0
KQU1 251911Z 33017KT 24/09 A30 RMK A01 T02430085  RH  037%=      5-min Rain = 0
KQU1 251912Z 35012G18KT 24/09 A30 RMK A01 T02430088  RH  037%=      5-min Rain = 0
KQU1 251913Z 01011G18KT 24/09 A30 RMK A01 T02440089  RH  037%=      5-min Rain = 0
KQU1 251914Z 01008G19KT 24/08 A30 RMK A01 T02440084  RH  036%=      5-min Rain = 0
KQU1 251915Z 01014G19KT 24/09 A30 RMK A01 T02440085  RH  036%=      5-min Rain = 0
KQU1 251916Z 01012G19KT 24/08 A30 RMK A01 T02430084  RH  036%=      5-min Rain = 0
KQU1 251917Z 35012G21KT 24/09 A30 RMK A01 T02430086  RH  037%=      5-min Rain = 0
KQU1 251918Z 35013G20KT 24/09 A30 RMK A01 T02440085  RH  036%=      5-min Rain = 0
KQU1 251919Z 36013G18KT 24/09 A30 RMK A01 T02440085  RH  036%=      5-min Rain = 0
KQU1 251920Z 01013G19KT 24/08 A30 RMK A01 T02440084  RH  036%=      5-min Rain = 0
KQU1 251921Z 35011G17KT 24/09 A30 RMK A01 T02440087  RH  037%=      5-min Rain = 0
KQU1 251922Z 01010G18KT 24/09 A30 RMK A01 T02440089  RH  037%=      5-min Rain = 0
KQU1 251923Z 35013KT 25/09 A30 RMK A01 T02450089  RH  037%=      5-min Rain = 0
KQU1 251924Z 36009G17KT 25/09 A30 RMK A01 T02460094  RH  038%=      5-min Rain = 0
KQU1 251925Z 35005G13KT 25/10 A30 RMK A01 T02470095  RH  038%=      5-min Rain = 0
KQU1 251926Z 00008G18KT 25/10 A30 RMK A01 T02480096  RH  038%=      5-min Rain = 0
KQU1 251927Z 36009G21KT 25/10 A30 RMK A01 T02480095  RH  038%=      5-min Rain = 0
KQU1 251928Z 36011G24KT 25/09 A30 RMK A01 T02480091  RH  037%=      5-min Rain = 0
KQU1 251929Z 36011G23KT 25/09 A30 RMK A01 T02470091  RH  037%=      5-min Rain = 0
KQU1 251930Z 02010G19KT 25/09 A30 RMK A01 T02470089  RH  037%=      5-min Rain = 0
KQU1 251931Z 01010G15KT 25/09 A30 RMK A01 T02460090  RH  037%=      5-min Rain = 0
KQU1 251932Z 35010KT 25/10 A30 RMK A01 T02460097  RH  039%=      5-min Rain = 0
KQU1 251933Z 35012G17KT 25/09 A30 RMK A01 T02460093  RH  038%=      5-min Rain = 0
KQU1 251934Z 00011G18KT 25/09 A30 RMK A01 T02460091  RH  037%=      5-min Rain = 0
KQU1 251935Z 02010G21KT 25/10 A30 RMK A01 T02460097  RH  039%=      5-min Rain = 0
KQU1 251936Z 01010G22KT 25/10 A30 RMK A01 T02470098  RH  039%=      5-min Rain = 0
KQU1 251937Z 01006G16KT 25/10 A3001 RMK A01 T02470101  RH  040%=      5-min Rain = 0
KQU1 251938Z 01009G15KT 25/10 A3001 RMK A01 T02470098  RH  039%=      5-min Rain = 0
KQU1 251939Z 35013G19KT 25/10 A3001 RMK A01 T02470097  RH  039%=      5-min Rain = 0
KQU1 251940Z 00007G12KT 25/10 A3001 RMK A01 T02460102  RH  040%=      5-min Rain = 0
KQU1 251941Z 34014G20KT 25/11 A3001 RMK A01 T02480105  RH  041%=      5-min Rain = 0
KQU1 251942Z 34018G24KT 25/10 A3001 RMK A01 T02470096  RH  038%=      5-min Rain = 0
KQU1 251943Z 35015G21KT 25/10 A3001 RMK A01 T02450097  RH  039%=      5-min Rain = 0
KQU1 251944Z 35013G19KT 25/10 A3001 RMK A01 T02450098  RH  040%=      5-min Rain = 0
KQU1 251945Z 35014G22KT 25/10 A3001 RMK A01 T02450100  RH  040%=      5-min Rain = 0
KQU1 251946Z 34019G27KT 24/10 A3001 RMK A01 T02440095  RH  039%=      5-min Rain = 0
KQU1 251947Z 34017KT 24/09 A3001 RMK A01 T02430094  RH  039%=      5-min Rain = 0
KQU1 251948Z 34017KT 24/09 A3001 RMK A01 T02420093  RH  039%=      5-min Rain = 0
KQU1 251949Z 34018G25KT 24/10 A3001 RMK A01 T02420095  RH  039%=      5-min Rain = 0
KQU1 251950Z 34017G23KT 24/09 A3001 RMK A01 T02420092  RH  039%=      5-min Rain = 0
KQU1 251951Z 34018G24KT 24/09 A3001 RMK A01 T02420094  RH  039%=      5-min Rain = 0
KQU1 251952Z 34021KT 24/09 A3001 RMK A01 T02420092  RH  039%=      5-min Rain = 0
KQU1 251953Z 00018G27KT 24/09 A3002 RMK A01 T02410090  RH  038%=      5-min Rain = 0
KQU1 251954Z 01013G19KT 24/09 A3002 RMK A01 T02410093  RH  039%=      5-min Rain = 0
KQU1 251955Z 01010KT 24/10 A3002 RMK A01 T02420095  RH  039%=      5-min Rain = 0
KQU1 251956Z 36011G17KT 24/10 A3002 RMK A01 T02420095  RH  039%=      5-min Rain = 0
KQU1 251957Z 35014G19KT 24/10 A3002 RMK A01 T02420096  RH  040%=      5-min Rain = 0
KQU1 251958Z 35015G24KT 24/10 A3002 RMK A01 T02430099  RH  040%=      5-min Rain = 0
KQU1 251959Z 36011G19KT 24/10 A3002 RMK A01 T02440102  RH  041%=      5-min Rain = 0
KQU1 252000Z 35016G23KT 25/10 A3002 RMK A01 T02450101  RH  040%=      5-min Rain = 0
KQU1 252001Z 34013G21KT 25/10 A3002 RMK A01 T02450100  RH  040%=      5-min Rain = 0
KQU1 252002Z 34016G22KT 25/10 A3002 RMK A01 T02450103  RH  041%=      5-min Rain = 0
KQU1 252003Z 33017G23KT 24/10 A3002 RMK A01 T02440102  RH  041%=      5-min Rain = 0
KQU1 252004Z 34018G24KT 24/10 A3002 RMK A01 T02430101  RH  041%=      5-min Rain = 0
KQU1 252005Z 34020KT 24/10 A3002 RMK A01 T02420097  RH  040%=      5-min Rain = 0
KQU1 252006Z 35017G25KT 24/10 A3002 RMK A01 T02410101  RH  041%=      5-min Rain = 0
KQU1 252007Z 35014G22KT 24/10 A3002 RMK A01 T02410101  RH  041%=      5-min Rain = 0
KQU1 252008Z 34020G26KT 24/10 A3002 RMK A01 T02410100  RH  041%=      5-min Rain = 0
KQU1 252009Z 35016G24KT 24/10 A3002 RMK A01 T02400099  RH  041%=      5-min Rain = 0
KQU1 252010Z 35011G21KT 24/11 A3002 RMK A01 T02410108  RH  043%=      5-min Rain = 0
KQU1 252011Z 00011G20KT 24/10 A3002 RMK A01 T02420104  RH  042%=      5-min Rain = 0
KQU1 252012Z 34014G20KT 24/10 A3002 RMK A01 T02420103  RH  041%=      5-min Rain = 0
KQU1 252013Z 35015G22KT 24/10 A3002 RMK A01 T02420100  RH  041%=      5-min Rain = 0
KQU1 252014Z 34018G23KT 24/10 A3002 RMK A01 T02410099  RH  040%=      5-min Rain = 0
KQU1 252015Z 35014G21KT 24/10 A3002 RMK A01 T02400097  RH  040%=      5-min Rain = 0
KQU1 252016Z 36010G17KT 24/11 A3002 RMK A01 T02420108  RH  043%=      5-min Rain = 0
KQU1 252017Z 36015G22KT 24/10 A3002 RMK A01 T02430103  RH  041%=      5-min Rain = 0
KQU1 252018Z 35016G21KT 24/10 A3002 RMK A01 T02440101  RH  041%=      5-min Rain = 0
KQU1 252019Z 36008G16KT 24/10 A3002 RMK A01 T02440103  RH  041%=      5-min Rain = 0
KQU1 252020Z 00009G23KT 25/11 A3002 RMK A01 T02450105  RH  041%=      5-min Rain = 0
KQU1 252021Z 35009G15KT 25/11 A3002 RMK A01 T02460107  RH  042%=      5-min Rain = 0
KQU1 252022Z 00014G23KT 25/10 A3003 RMK A01 T02460104  RH  041%=      5-min Rain = 0
KQU1 252023Z 01012G21KT 24/10 A3003 RMK A01 T02440099  RH  040%=      5-min Rain = 0
KQU1 252024Z 00011G17KT 24/10 A3003 RMK A01 T02440102  RH  041%=      5-min Rain = 0
KQU1 252025Z 35014G20KT 24/10 A3003 RMK A01 T02430096  RH  039%=      5-min Rain = 0
KQU1 252026Z 00007G14KT 24/10 A3003 RMK A01 T02420100  RH  041%=      5-min Rain = 0
KQU1 252027Z 02010G16KT 24/10 A3003 RMK A01 T02430100  RH  040%=      5-min Rain = 0
KQU1 252028Z 01007G14KT 24/10 A3003 RMK A01 T02430103  RH  041%=      5-min Rain = 0
KQU1 252029Z 00008G17KT 24/10 A3003 RMK A01 T02440102  RH  041%=      5-min Rain = 0
KQU1 252030Z 35007G13KT 25/10 A3003 RMK A01 T02450103  RH  041%=      5-min Rain = 0
KQU1 252031Z 35011G19KT 25/10 A3003 RMK A01 T02450100  RH  040%=      5-min Rain = 0
KQU1 252032Z 35012G21KT 24/10 A3002 RMK A01 T02440100  RH  040%=      5-min Rain = 0
KQU1 252033Z 02007G17KT 25/10 A3003 RMK A01 T02450104  RH  041%=      5-min Rain = 0
KQU1 252034Z 01011G18KT 25/10 A3003 RMK A01 T02450098  RH  039%=      5-min Rain = 0
KQU1 252035Z 02010G20KT 24/10 A3003 RMK A01 T02440098  RH  039%=      5-min Rain = 0
KQU1 252036Z 01013G21KT 24/10 A3003 RMK A01 T02430097  RH  039%=      5-min Rain = 0
KQU1 252037Z 02012KT 24/10 A3003 RMK A01 T02430098  RH  040%=      5-min Rain = 0
KQU1 252038Z 36010G18KT 24/10 A3002 RMK A01 T02420097  RH  040%=      5-min Rain = 0
KQU1 252039Z 02011G16KT 24/10 A3003 RMK A01 T02420100  RH  041%=      5-min Rain = 0
KQU1 252040Z 03012G17KT 24/10 A3002 RMK A01 T02420098  RH  040%=      5-min Rain = 0
KQU1 252041Z 02007G13KT 24/10 A3003 RMK A01 T02420103  RH  041%=      5-min Rain = 0
KQU1 252042Z 02016G23KT 24/10 A3003 RMK A01 T02420097  RH  040%=      5-min Rain = 0
KQU1 252043Z 01008G15KT 24/10 A3003 RMK A01 T02420097  RH  040%=      5-min Rain = 0
KQU1 252044Z 01008G14KT 24/10 A3003 RMK A01 T02420100  RH  041%=      5-min Rain = 0
KQU1 252045Z 34010G16KT 24/10 A3003 RMK A01 T02420098  RH  040%=      5-min Rain = 0
KQU1 252046Z 35013G18KT 24/10 A3003 RMK A01 T02430098  RH  040%=      5-min Rain = 0
KQU1 252047Z 35016G21KT 24/10 A3003 RMK A01 T02440095  RH  039%=      5-min Rain = 0
KQU1 252048Z 35015G21KT 24/09 A3003 RMK A01 T02430094  RH  039%=      5-min Rain = 0
KQU1 252049Z 36013KT 24/09 A3003 RMK A01 T02420092  RH  038%=      5-min Rain = 0
KQU1 252050Z 01011G16KT 24/10 A3003 RMK A01 T02430096  RH  039%=      5-min Rain = 0
KQU1 252051Z 02013G23KT 24/09 A3003 RMK A01 T02430094  RH  039%=      5-min Rain = 0
KQU1 252052Z 01012G20KT 24/09 A3003 RMK A01 T02430092  RH  038%=      5-min Rain = 0
KQU1 252053Z 36015G22KT 24/09 A3003 RMK A01 T02430090  RH  038%=      5-min Rain = 0
KQU1 252054Z 35013G21KT 24/09 A3003 RMK A01 T02430092  RH  038%=      5-min Rain = 0
KQU1 252055Z 01006G11KT 24/10 A3003 RMK A01 T02440096  RH  039%=      5-min Rain = 0
KQU1 252056Z 35012G19KT 25/09 A3003 RMK A01 T02450092  RH  038%=      5-min Rain = 0
KQU1 252057Z 36012G25KT 25/09 A3003 RMK A01 T02450093  RH  038%=      5-min Rain = 0
KQU1 252058Z 36013G19KT 25/09 A3003 RMK A01 T02450087  RH  037%=      5-min Rain = 0
KQU1 252059Z 36009G15KT 24/09 A3003 RMK A01 T02440087  RH  037%=      5-min Rain = 0
KQU1 252100Z 03008G16KT 24/09 A3003 RMK A01 T02440092  RH  038%=      5-min Rain = 0
KQU1 252101Z 01010G17KT 25/09 A3003 RMK A01 T02450090  RH  037%=      5-min Rain = 0
KQU1 252102Z 03010KT 24/09 A3003 RMK A01 T02440089  RH  037%=      5-min Rain = 0
KQU1 252103Z 02016G22KT 24/09 A3003 RMK A01 T02440088  RH  037%=      5-min Rain = 0
KQU1 252104Z 01014G24KT 24/09 A3003 RMK A01 T02430086  RH  037%=      5-min Rain = 0
KQU1 252105Z 02010G16KT 24/09 A3003 RMK A01 T02430090  RH  038%=      5-min Rain = 0
KQU1 252106Z 01008G17KT 24/09 A3003 RMK A01 T02440091  RH  038%=      5-min Rain = 0
KQU1 252107Z 00015G24KT 25/09 A3003 RMK A01 T02450089  RH  037%=      5-min Rain = 0
KQU1 252108Z 00014G23KT 24/09 A3003 RMK A01 T02440088  RH  037%=      5-min Rain = 0
KQU1 252109Z 01014G20KT 24/08 A3003 RMK A01 T02440084  RH  036%=      5-min Rain = 0
KQU1 252110Z 36015G22KT 24/08 A3003 RMK A01 T02430084  RH  036%=      5-min Rain = 0
KQU1 252111Z 00009G16KT 24/09 A3003 RMK A01 T02430088  RH  037%=      5-min Rain = 0
KQU1 252112Z 01012G18KT 24/09 A3003 RMK A01 T02440086  RH  037%=      5-min Rain = 0
KQU1 252113Z 02015G20KT 24/09 A3003 RMK A01 T02440087  RH  037%=      5-min Rain = 0
KQU1 252114Z 02012G24KT 24/09 A3003 RMK A01 T02430090  RH  038%=      5-min Rain = 0
KQU1 252115Z 01008G13KT 24/09 A3003 RMK A01 T02440092  RH  038%=      5-min Rain = 0
KQU1 252116Z 00009G15KT 24/09 A3003 RMK A01 T02440092  RH  038%=      5-min Rain = 0
KQU1 252117Z 36012G21KT 25/09 A3003 RMK A01 T02450092  RH  038%=      5-min Rain = 0
KQU1 252118Z 00012G18KT 25/09 A3003 RMK A01 T02450090  RH  037%=      5-min Rain = 0
KQU1 252119Z 35012G18KT 25/09 A3003 RMK A01 T02450093  RH  038%=      5-min Rain = 0
KQU1 252120Z 01011G19KT 25/09 A3003 RMK A01 T02460092  RH  038%=      5-min Rain = 0
KQU1 252121Z 01009G15KT 25/09 A3003 RMK A01 T02460094  RH  038%=      5-min Rain = 0
KQU1 252122Z 02013G20KT 25/09 A3003 RMK A01 T02470087  RH  036%=      5-min Rain = 0
KQU1 252123Z 02013G18KT 25/08 A3003 RMK A01 T02450083  RH  036%=      5-min Rain = 0
KQU1 252124Z 02012G18KT 24/09 A3003 RMK A01 T02440089  RH  037%=      5-min Rain = 0
KQU1 252125Z 02011G21KT 25/09 A3003 RMK A01 T02450092  RH  038%=      5-min Rain = 0
KQU1 252126Z 03017KT 24/08 A3003 RMK A01 T02440080  RH  035%=      5-min Rain = 0
KQU1 252127Z 03012G18KT 24/08 A3003 RMK A01 T02430082  RH  036%=      5-min Rain = 0
KQU1 252128Z 00014G19KT 24/09 A3003 RMK A01 T02430087  RH  037%=      5-min Rain = 0
KQU1 252129Z 01012G18KT 24/09 A3003 RMK A01 T02430086  RH  037%=      5-min Rain = 0
KQU1 252130Z 36009G17KT 24/09 A3003 RMK A01 T02430088  RH  037%=      5-min Rain = 0
KQU1 252131Z 01010G16KT 24/09 A3003 RMK A01 T02440089  RH  037%=      5-min Rain = 0
KQU1 252132Z 01012G17KT 25/09 A3003 RMK A01 T02450090  RH  037%=      5-min Rain = 0
KQU1 252133Z 02011G19KT 25/09 A3003 RMK A01 T02450090  RH  037%=      5-min Rain = 0
KQU1 252134Z 02013KT 25/08 A3003 RMK A01 T02450083  RH  035%=      5-min Rain = 0
KQU1 252135Z 03009KT 24/09 A3003 RMK A01 T02440087  RH  037%=      5-min Rain = 0
KQU1 252136Z 02008KT 24/09 A3003 RMK A01 T02440089  RH  037%=      5-min Rain = 0
KQU1 252137Z 03011G16KT 25/09 A3003 RMK A01 T02450091  RH  037%=      5-min Rain = 0
KQU1 252138Z 03016KT 25/09 A3003 RMK A01 T02450087  RH  036%=      5-min Rain = 0
KQU1 252139Z 02013G19KT 25/09 A3003 RMK A01 T02450087  RH  036%=      5-min Rain = 0
KQU1 252140Z 02012G20KT 25/09 A3003 RMK A01 T02450090  RH  037%=      5-min Rain = 0
KQU1 252141Z 00006G14KT 25/10 A3003 RMK A01 T02450095  RH  039%=      5-min Rain = 0
KQU1 252142Z 35010KT 25/09 A3003 RMK A01 T02460094  RH  038%=      5-min Rain = 0
KQU1 252143Z 35012G21KT 25/09 A3003 RMK A01 T02470094  RH  038%=      5-min Rain = 0
KQU1 252144Z 01012G18KT 25/09 A3003 RMK A01 T02470092  RH  037%=      5-min Rain = 0
KQU1 252145Z 01013G25KT 25/09 A3003 RMK A01 T02460088  RH  037%=      5-min Rain = 0
KQU1 252146Z 35014G22KT 24/09 A3003 RMK A01 T02430086  RH  037%=      5-min Rain = 0
KQU1 252147Z 00008G16KT 24/09 A3003 RMK A01 T02410089  RH  038%=      5-min Rain = 0
KQU1 252148Z 02012G21KT 24/09 A3003 RMK A01 T02390089  RH  038%=      5-min Rain = 0
KQU1 252149Z 01007G14KT 24/09 A3004 RMK A01 T02380089  RH  039%=      5-min Rain = 0
KQU1 252150Z 01008G18KT 24/09 A3004 RMK A01 T02370089  RH  039%=      5-min Rain = 0
KQU1 252151Z 01009G16KT 24/09 A3004 RMK A01 T02380089  RH  039%=      5-min Rain = 0
KQU1 252152Z 35009KT 24/09 A3004 RMK A01 T02400089  RH  038%=      5-min Rain = 0
KQU1 252153Z 01008G13KT 24/09 A3004 RMK A01 T02420094  RH  039%=      5-min Rain = 0
KQU1 252154Z 02013G18KT 24/09 A3004 RMK A01 T02430090  RH  038%=      5-min Rain = 0
KQU1 252155Z 02011G16KT 24/09 A3004 RMK A01 T02440089  RH  037%=      5-min Rain = 0
KQU1 252156Z 02011KT 24/09 A3003 RMK A01 T02440086  RH  037%=      5-min Rain = 0
KQU1 252157Z 00008KT 24/09 A3003 RMK A01 T02440089  RH  037%=      5-min Rain = 0
KQU1 252158Z 01010G20KT 25/09 A3003 RMK A01 T02450090  RH  037%=      5-min Rain = 0
KQU1 252159Z 02014G21KT 25/09 A3003 RMK A01 T02450086  RH  036%=      5-min Rain = 0
KQU1 252200Z 03018KT 24/09 A3003 RMK A01 T02440086  RH  036%=      5-min Rain = 0
KQU1 252201Z 02013G20KT 24/09 A3003 RMK A01 T02440085  RH  036%=      5-min Rain = 0
KQU1 252202Z 03014G22KT 25/09 A3003 RMK A01 T02450087  RH  037%=      5-min Rain = 0
KQU1 252203Z 02016G21KT 24/08 A3003 RMK A01 T02440082  RH  036%=      5-min Rain = 0
KQU1 252204Z 03013KT 24/09 A3004 RMK A01 T02440087  RH  037%=      5-min Rain = 0
KQU1 252205Z 01005G11KT 25/09 A3004 RMK A01 T02450093  RH  038%=      5-min Rain = 0
KQU1 252206Z 00012G18KT 25/09 A3004 RMK A01 T02460086  RH  036%=      5-min Rain = 0
KQU1 252207Z 35010G22KT 25/09 A3004 RMK A01 T02460088  RH  037%=      5-min Rain = 0
KQU1 252208Z 35009G18KT 25/08 A3004 RMK A01 T02460084  RH  036%=      5-min Rain = 0
KQU1 252209Z 02005G12KT 25/09 A3004 RMK A01 T02460092  RH  038%=      5-min Rain = 0
KQU1 252210Z 02005KT 25/09 A3004 RMK A01 T02480089  RH  037%=      5-min Rain = 0
KQU1 252211Z 36009G20KT 25/09 A3004 RMK A01 T02490090  RH  036%=      5-min Rain = 0
KQU1 252212Z 34011G16KT 25/09 A3004 RMK A01 T02490088  RH  036%=      5-min Rain = 0
KQU1 252213Z 35009G17KT 25/09 A3004 RMK A01 T02480087  RH  036%=      5-min Rain = 0
KQU1 252214Z 35010G15KT 25/09 A3004 RMK A01 T02480089  RH  036%=      5-min Rain = 0
KQU1 252215Z 02008G15KT 25/09 A3004 RMK A01 T02490089  RH  036%=      5-min Rain = 0
KQU1 252216Z 36008G13KT 25/09 A3004 RMK A01 T02490087  RH  036%=      5-min Rain = 0
KQU1 252217Z 00019KT 25/08 A3004 RMK A01 T02480082  RH  035%=      5-min Rain = 0
KQU1 252218Z 00013G19KT 25/08 A3004 RMK A01 T02460081  RH  035%=      5-min Rain = 0
KQU1 252219Z 35011G16KT 25/08 A3004 RMK A01 T02450084  RH  036%=      5-min Rain = 0
KQU1 252220Z 00010G19KT 25/09 A3004 RMK A01 T02450086  RH  036%=      5-min Rain = 0
KQU1 252221Z 01011G21KT 25/09 A3004 RMK A01 T02450086  RH  036%=      5-min Rain = 0
KQU1 252222Z 01009G18KT 25/09 A3004 RMK A01 T02450087  RH  037%=      5-min Rain = 0
KQU1 252223Z 35013G25KT 25/09 A3004 RMK A01 T02450089  RH  037%=      5-min Rain = 0
KQU1 252224Z 35014G21KT 25/09 A3004 RMK A01 T02450088  RH  037%=      5-min Rain = 0
KQU1 252225Z 35012G20KT 25/09 A3004 RMK A01 T02450088  RH  037%=      5-min Rain = 0
KQU1 252226Z 00009G16KT 25/09 A3005 RMK A01 T02450090  RH  037%=      5-min Rain = 0
KQU1 252227Z 02008KT 25/09 A3005 RMK A01 T02450089  RH  037%=      5-min Rain = 0
KQU1 252228Z 01010KT 25/09 A3005 RMK A01 T02450087  RH  037%=      5-min Rain = 0
KQU1 252229Z 36009G14KT 25/09 A3005 RMK A01 T02450089  RH  037%=      5-min Rain = 0
KQU1 252230Z 35012G18KT 24/09 A3005 RMK A01 T02440086  RH  036%=      5-min Rain = 0
KQU1 252231Z 00011G20KT 25/09 A3004 RMK A01 T02450091  RH  038%=      5-min Rain = 0
KQU1 252232Z 00009G16KT 25/09 A3005 RMK A01 T02450090  RH  037%=      5-min Rain = 0
KQU1 252233Z 36010G17KT 25/09 A3005 RMK A01 T02450092  RH  038%=      5-min Rain = 0
KQU1 252234Z 35011G20KT 25/09 A3005 RMK A01 T02450092  RH  038%=      5-min Rain = 0
KQU1 252235Z 35015KT 24/09 A3004 RMK A01 T02440089  RH  037%=      5-min Rain = 0
KQU1 252236Z 35017G29KT 24/09 A3004 RMK A01 T02430088  RH  037%=      5-min Rain = 0
KQU1 252237Z 35015G26KT 24/09 A3004 RMK A01 T02430091  RH  038%=      5-min Rain = 0
KQU1 252238Z 03010G19KT 24/09 A3005 RMK A01 T02440091  RH  038%=      5-min Rain = 0
KQU1 252239Z 04017G23KT 24/09 A3005 RMK A01 T02440089  RH  037%=      5-min Rain = 0
KQU1 252240Z 02015G22KT 24/09 A3004 RMK A01 T02430093  RH  039%=      5-min Rain = 0
KQU1 252241Z 02009G14KT 24/10 A3005 RMK A01 T02440096  RH  039%=      5-min Rain = 0
KQU1 252242Z 01008G15KT 24/09 A3005 RMK A01 T02440094  RH  039%=      5-min Rain = 0
KQU1 252243Z 02012G17KT 24/09 A3005 RMK A01 T02440090  RH  037%=      5-min Rain = 0
KQU1 252244Z 02013G18KT 24/09 A3005 RMK A01 T02440093  RH  038%=      5-min Rain = 0
KQU1 252245Z 02013G18KT 24/09 A3005 RMK A01 T02430091  RH  038%=      5-min Rain = 0
KQU1 252246Z 02012G18KT 24/09 A3005 RMK A01 T02430092  RH  038%=      5-min Rain = 0
KQU1 252247Z 02013KT 24/09 A3005 RMK A01 T02430091  RH  038%=      5-min Rain = 0
KQU1 252248Z 02009G18KT 24/09 A3005 RMK A01 T02420092  RH  038%=      5-min Rain = 0
KQU1 252249Z 03017G23KT 24/09 A3005 RMK A01 T02420089  RH  038%=      5-min Rain = 0
KQU1 252250Z 03020G27KT 24/09 A3005 RMK A01 T02410085  RH  037%=      5-min Rain = 0
KQU1 252251Z 02020G25KT 24/09 A3005 RMK A01 T02400087  RH  038%=      5-min Rain = 0
KQU1 252252Z 02014G19KT 24/09 A3005 RMK A01 T02390087  RH  038%=      5-min Rain = 0
KQU1 252253Z 04017KT 24/09 A3005 RMK A01 T02390085  RH  038%=      5-min Rain = 0
KQU1 252254Z 03017G23KT 24/09 A3005 RMK A01 T02390086  RH  038%=      5-min Rain = 0
KQU1 252255Z 03019KT 24/09 A3005 RMK A01 T02390088  RH  038%=      5-min Rain = 0
KQU1 252256Z 03016KT 24/09 A3005 RMK A01 T02390087  RH  038%=      5-min Rain = 0
KQU1 252257Z 02013KT 24/09 A3005 RMK A01 T02390090  RH  039%=      5-min Rain = 0
KQU1 252258Z 02013G21KT 24/09 A3005 RMK A01 T02390091  RH  039%=      5-min Rain = 0
KQU1 252259Z 01010G17KT 24/09 A3005 RMK A01 T02400093  RH  039%=      5-min Rain = 0
KQU1 252300Z 01010KT 24/09 A3005 RMK A01 T02400094  RH  040%=      5-min Rain = 0
KQU1 252301Z 03006G14KT 24/10 A3005 RMK A01 T02410097  RH  040%=      5-min Rain = 0
KQU1 252302Z 02006KT 24/10 A3005 RMK A01 T02420097  RH  040%=      5-min Rain = 0
KQU1 252303Z 03012G23KT 24/09 A3005 RMK A01 T02420094  RH  039%=      5-min Rain = 0
KQU1 252304Z 01009G17KT 24/09 A3005 RMK A01 T02420093  RH  039%=      5-min Rain = 0
KQU1 252305Z 35013G21KT 24/09 A3005 RMK A01 T02420092  RH  038%=      5-min Rain = 0
KQU1 252306Z 36007G17KT 24/09 A3005 RMK A01 T02420093  RH  039%=      5-min Rain = 0
KQU1 252307Z 01007G13KT 24/09 A3005 RMK A01 T02420090  RH  038%=      5-min Rain = 0
KQU1 252308Z 36014G21KT 24/09 A3005 RMK A01 T02420090  RH  038%=      5-min Rain = 0
KQU1 252309Z 36017G25KT 24/09 A3006 RMK A01 T02420089  RH  038%=      5-min Rain = 0
KQU1 252310Z 35011G22KT 24/09 A3006 RMK A01 T02410090  RH  038%=      5-min Rain = 0
KQU1 252311Z 02007G15KT 24/09 A3006 RMK A01 T02410092  RH  039%=      5-min Rain = 0
KQU1 252312Z 01010G18KT 24/09 A3006 RMK A01 T02410090  RH  038%=      5-min Rain = 0
KQU1 252313Z 03012G22KT 24/09 A3006 RMK A01 T02400088  RH  038%=      5-min Rain = 0
KQU1 252314Z 00011KT 24/09 A3006 RMK A01 T02390089  RH  038%=      5-min Rain = 0
KQU1 252315Z 03013G19KT 24/09 A3006 RMK A01 T02390088  RH  038%=      5-min Rain = 0
KQU1 252316Z 03010KT 24/09 A3006 RMK A01 T02380089  RH  038%=      5-min Rain = 0
KQU1 252317Z 02012KT 24/09 A3006 RMK A01 T02380089  RH  039%=      5-min Rain = 0
KQU1 252318Z 04016G23KT 24/09 A3006 RMK A01 T02380088  RH  038%=      5-min Rain = 0
KQU1 252319Z 03018G24KT 24/09 A3006 RMK A01 T02370086  RH  038%=      5-min Rain = 0
KQU1 252320Z 02014G19KT 24/09 A3006 RMK A01 T02370086  RH  038%=      5-min Rain = 0
KQU1 252321Z 02014G20KT 24/09 A3006 RMK A01 T02370086  RH  038%=      5-min Rain = 0
KQU1 252322Z 03017G22KT 24/09 A3006 RMK A01 T02370085  RH  038%=      5-min Rain = 0
KQU1 252323Z 03016KT 24/09 A3006 RMK A01 T02360085  RH  038%=      5-min Rain = 0
KQU1 252324Z 03016G21KT 24/08 A3006 RMK A01 T02360083  RH  038%=      5-min Rain = 0
KQU1 252325Z 03014KT 24/09 A3006 RMK A01 T02360085  RH  038%=      5-min Rain = 0
KQU1 252326Z 03014G19KT 24/08 A3006 RMK A01 T02360083  RH  037%=      5-min Rain = 0
KQU1 252327Z 03013KT 24/08 A3006 RMK A01 T02360082  RH  037%=      5-min Rain = 0
KQU1 252328Z 03015KT 24/08 A3006 RMK A01 T02350082  RH  038%=      5-min Rain = 0
KQU1 252329Z 02016KT 24/08 A3006 RMK A01 T02350081  RH  037%=      5-min Rain = 0
KQU1 252330Z 03014KT 24/08 A3007 RMK A01 T02350083  RH  038%=      5-min Rain = 0
KQU1 252331Z 02015G20KT 24/08 A3007 RMK A01 T02350084  RH  038%=      5-min Rain = 0
KQU1 252332Z 02015G22KT 24/08 A3007 RMK A01 T02350083  RH  038%=      5-min Rain = 0
KQU1 252333Z 01011G20KT 24/08 A3007 RMK A01 T02350084  RH  038%=      5-min Rain = 0
KQU1 252334Z 01009G17KT 24/08 A3007 RMK A01 T02350084  RH  038%=      5-min Rain = 0
KQU1 252335Z 35012G19KT 24/09 A3007 RMK A01 T02350085  RH  038%=      5-min Rain = 0
KQU1 252336Z 03006G13KT 24/09 A3007 RMK A01 T02360086  RH  038%=      5-min Rain = 0
KQU1 252337Z 03014G19KT 24/08 A3007 RMK A01 T02360083  RH  038%=      5-min Rain = 0
KQU1 252338Z 03015G21KT 24/08 A3007 RMK A01 T02350079  RH  037%=      5-min Rain = 0
KQU1 252339Z 02014G21KT 24/08 A3007 RMK A01 T02350081  RH  037%=      5-min Rain = 0
KQU1 252340Z 03012KT 23/08 A3007 RMK A01 T02340081  RH  037%=      5-min Rain = 0
KQU1 252341Z 02010KT 23/08 A3007 RMK A01 T02340082  RH  038%=      5-min Rain = 0
KQU1 252342Z 02008KT 23/08 A3007 RMK A01 T02340082  RH  038%=      5-min Rain = 0
KQU1 252343Z 02011G17KT 23/08 A3007 RMK A01 T02340082  RH  038%=      5-min Rain = 0
KQU1 252344Z 02008KT 23/09 A3007 RMK A01 T02340085  RH  038%=      5-min Rain = 0
KQU1 252345Z 03005G12KT 24/09 A3007 RMK A01 T02350089  RH  039%=      5-min Rain = 0
KQU1 252346Z 03006KT 24/09 A3008 RMK A01 T02360087  RH  039%=      5-min Rain = 0
KQU1 252347Z 00004G9KT 24/09 A3007 RMK A01 T02360086  RH  038%=      5-min Rain = 0
KQU1 252348Z 01010G16KT 24/08 A3007 RMK A01 T02360082  RH  037%=      5-min Rain = 0
KQU1 252349Z 02013G18KT 24/08 A3008 RMK A01 T02360079  RH  037%=      5-min Rain = 0
KQU1 252350Z 02007KT 24/08 A3008 RMK A01 T02350079  RH  037%=      5-min Rain = 0
KQU1 252351Z 03009G16KT 24/08 A3008 RMK A01 T02350081  RH  037%=      5-min Rain = 0
KQU1 252352Z 02014G20KT 23/08 A3008 RMK A01 T02340079  RH  037%=      5-min Rain = 0
KQU1 252353Z 01010G15KT 23/08 A3008 RMK A01 T02340082  RH  038%=      5-min Rain = 0
KQU1 252354Z 02017G23KT 23/08 A3008 RMK A01 T02330076  RH  036%=      5-min Rain = 0
KQU1 252355Z 02012G17KT 23/07 A3008 RMK A01 T02320074  RH  036%=      5-min Rain = 0
KQU1 252356Z 02010G17KT 23/07 A3008 RMK A01 T02310074  RH  036%=      5-min Rain = 0
KQU1 252357Z 01010G20KT 23/08 A3008 RMK A01 T02310075  RH  037%=      5-min Rain = 0
KQU1 252358Z 00010G15KT 23/07 A3008 RMK A01 T02310073  RH  036%=      5-min Rain = 0
KQU1 252359Z 00012G18KT 23/07 A3007 RMK A01 T02310073  RH  036%=      5-min Rain = 0
KQU1 260000Z 01008G14KT 23/07 A3008 RMK A01 T02310074  RH  036%=      5-min Rain = 0
KQU1 260001Z 00007G13KT 23/07 A3008 RMK A01 T02310074  RH  037%=      5-min Rain = 0
KQU1 260002Z 01008G14KT 23/07 A3008 RMK A01 T02310070  RH  035%=      5-min Rain = 0
KQU1 260003Z 02009G19KT 23/07 A3008 RMK A01 T02320071  RH  035%=      5-min Rain = 0
KQU1 260004Z 02016KT 23/06 A3008 RMK A01 T02310063  RH  034%=      5-min Rain = 0
KQU1 260005Z 02010G15KT 23/06 A3008 RMK A01 T02300061  RH  034%=      5-min Rain = 0
KQU1 260006Z 02011G16KT 23/06 A3008 RMK A01 T02290060  RH  033%=      5-min Rain = 0
KQU1 260007Z 03008G14KT 23/06 A3008 RMK A01 T02290058  RH  033%=      5-min Rain = 0
KQU1 260008Z 02009KT 23/06 A3008 RMK A01 T02290060  RH  034%=      5-min Rain = 0
KQU1 260009Z 01008KT 23/06 A3008 RMK A01 T02290059  RH  033%=      5-min Rain = 0
KQU1 260010Z 02009G15KT 23/06 A3008 RMK A01 T02280057  RH  033%=      5-min Rain = 0
KQU1 260011Z 02010KT 23/06 A3008 RMK A01 T02280058  RH  033%=      5-min Rain = 0
KQU1 260012Z 02012G19KT 23/06 A3008 RMK A01 T02280056  RH  033%=      5-min Rain = 0
KQU1 260013Z 03011G16KT 23/06 A3008 RMK A01 T02270055  RH  033%=      5-min Rain = 0
KQU1 260014Z 02004G10KT 23/06 A3008 RMK A01 T02270060  RH  034%=      5-min Rain = 0
KQU1 260015Z 01003KT 23/06 A3008 RMK A01 T02270063  RH  035%=      5-min Rain = 0
KQU1 260016Z 35005KT 23/06 A3008 RMK A01 T02280061  RH  034%=      5-min Rain = 0
KQU1 260017Z 02008KT 23/06 A3008 RMK A01 T02280062  RH  034%=      5-min Rain = 0
KQU1 260018Z 01007G13KT 23/06 A3008 RMK A01 T02270063  RH  034%=      5-min Rain = 0
KQU1 260019Z 00007G13KT 23/06 A3008 RMK A01 T02270062  RH  034%=      5-min Rain = 0
KQU1 260020Z 01009G16KT 23/06 A3008 RMK A01 T02260064  RH  035%=      5-min Rain = 0
KQU1 260021Z 00009G14KT 23/06 A3008 RMK A01 T02260063  RH  035%=      5-min Rain = 0
KQU1 260022Z 01010G17KT 23/06 A3008 RMK A01 T02260063  RH  035%=      5-min Rain = 0
KQU1 260023Z 01005G12KT 23/06 A3008 RMK A01 T02250064  RH  035%=      5-min Rain = 0
KQU1 260024Z 01010G17KT 23/06 A3008 RMK A01 T02250062  RH  035%=      5-min Rain = 0
KQU1 260025Z 01010G17KT 22/06 A3008 RMK A01 T02240061  RH  035%=      5-min Rain = 0
KQU1 260026Z 01004KT 22/07 A3008 RMK A01 T02240065  RH  036%=      5-min Rain = 0
KQU1 260027Z 35007KT 22/07 A3008 RMK A01 T02240066  RH  036%=      5-min Rain = 0
KQU1 260028Z 01009G16KT 22/07 A3008 RMK A01 T02240065  RH  036%=      5-min Rain = 0
KQU1 260029Z 00010KT 22/06 A3008 RMK A01 T02240064  RH  035%=      5-min Rain = 0
KQU1 260030Z 00009KT 22/07 A3008 RMK A01 T02240067  RH  036%=      5-min Rain = 0
KQU1 260031Z 02007G13KT 22/07 A3008 RMK A01 T02230067  RH  036%=      5-min Rain = 0
KQU1 260032Z 02006KT 22/07 A3008 RMK A01 T02230070  RH  037%=      5-min Rain = 0
KQU1 260033Z 01007KT 22/07 A3008 RMK A01 T02230071  RH  037%=      5-min Rain = 0
KQU1 260034Z 02008G13KT 22/07 A3008 RMK A01 T02230069  RH  037%=      5-min Rain = 0
KQU1 260035Z 02009KT 22/07 A3008 RMK A01 T02230070  RH  037%=      5-min Rain = 0
KQU1 260036Z 03011KT 22/07 A3008 RMK A01 T02220067  RH  037%=      5-min Rain = 0
KQU1 260037Z 02012G18KT 22/07 A3008 RMK A01 T02210065  RH  036%=      5-min Rain = 0
KQU1 260038Z 02014G19KT 22/06 A3008 RMK A01 T02210062  RH  036%=      5-min Rain = 0
KQU1 260039Z 03012G18KT 22/06 A3008 RMK A01 T02200062  RH  036%=      5-min Rain = 0
KQU1 260040Z 02014G19KT 22/06 A3008 RMK A01 T02200061  RH  036%=      5-min Rain = 0
KQU1 260041Z 02013G19KT 22/06 A3008 RMK A01 T02200060  RH  035%=      5-min Rain = 0
KQU1 260042Z 02014KT 22/06 A3008 RMK A01 T02190060  RH  035%=      5-min Rain = 0
KQU1 260043Z 03013KT 22/06 A3008 RMK A01 T02190062  RH  036%=      5-min Rain = 0
KQU1 260044Z 03013KT 22/06 A3008 RMK A01 T02190062  RH  036%=      5-min Rain = 0
KQU1 260045Z 02011G16KT 22/06 A3008 RMK A01 T02190063  RH  036%=      5-min Rain = 0
KQU1 260046Z 02008KT 22/06 A3008 RMK A01 T02180064  RH  037%=      5-min Rain = 0
KQU1 260047Z 03012KT 22/06 A3008 RMK A01 T02180064  RH  037%=      5-min Rain = 0
KQU1 260048Z 02011KT 22/07 A3008 RMK A01 T02180065  RH  037%=      5-min Rain = 0
KQU1 260049Z 02010G16KT 22/07 A3008 RMK A01 T02180065  RH  037%=      5-min Rain = 0
KQU1 260050Z 03011KT 22/06 A3008 RMK A01 T02170063  RH  037%=      5-min Rain = 0
KQU1 260051Z 03010G16KT 22/06 A3008 RMK A01 T02170064  RH  037%=      5-min Rain = 0
KQU1 260052Z 03011KT 22/06 A3009 RMK A01 T02170063  RH  037%=      5-min Rain = 0
KQU1 260053Z 03012KT 22/06 A3009 RMK A01 T02170063  RH  037%=      5-min Rain = 0
KQU1 260054Z 03012KT 22/06 A3009 RMK A01 T02160064  RH  037%=      5-min Rain = 0
KQU1 260055Z 03009KT 22/07 A3009 RMK A01 T02160066  RH  038%=      5-min Rain = 0
KQU1 260056Z 02009KT 22/07 A3009 RMK A01 T02160067  RH  038%=      5-min Rain = 0
KQU1 260057Z 02008KT 22/07 A3009 RMK A01 T02160068  RH  038%=      5-min Rain = 0
KQU1 260058Z 02009KT 22/07 A3009 RMK A01 T02150067  RH  038%=      5-min Rain = 0
KQU1 260059Z 01005KT 22/07 A3009 RMK A01 T02150069  RH  039%=      5-min Rain = 0
KQU1 260100Z 03008KT 21/07 A3009 RMK A01 T02140070  RH  039%=      5-min Rain = 0
KQU1 260101Z 02005KT 21/07 A3009 RMK A01 T02140071  RH  039%=      5-min Rain = 0
KQU1 260102Z 02005KT 21/07 A3009 RMK A01 T02140073  RH  040%=      5-min Rain = 0
KQU1 260103Z 02004KT 21/07 A3009 RMK A01 T02130072  RH  040%=      5-min Rain = 0
KQU1 260104Z 02007KT 21/07 A3009 RMK A01 T02120070  RH  040%=      5-min Rain = 0
KQU1 260105Z 02009KT 21/07 A3009 RMK A01 T02120069  RH  040%=      5-min Rain = 0
KQU1 260106Z 04009KT 21/07 A3009 RMK A01 T02120067  RH  039%=      5-min Rain = 0
KQU1 260107Z 02007KT 21/07 A3009 RMK A01 T02120069  RH  040%=      5-min Rain = 0
KQU1 260108Z 03009KT 21/07 A3009 RMK A01 T02110069  RH  040%=      5-min Rain = 0
KQU1 260109Z 02009KT 21/07 A3009 RMK A01 T02110070  RH  040%=      5-min Rain = 0
KQU1 260110Z 03010KT 21/07 A3009 RMK A01 T02110069  RH  040%=      5-min Rain = 0
KQU1 260111Z 02008KT 21/07 A3009 RMK A01 T02100070  RH  040%=      5-min Rain = 0
KQU1 260112Z 03009KT 21/07 A3009 RMK A01 T02100071  RH  041%=      5-min Rain = 0
KQU1 260113Z 03008KT 21/07 A3009 RMK A01 T02090070  RH  040%=      5-min Rain = 0
KQU1 260114Z 03008KT 21/07 A3009 RMK A01 T02080070  RH  041%=      5-min Rain = 0
KQU1 260115Z 03007KT 21/07 A3009 RMK A01 T02080073  RH  042%=      5-min Rain = 0
KQU1 260116Z 03009KT 21/07 A3009 RMK A01 T02070071  RH  041%=      5-min Rain = 0
KQU1 260117Z 03008KT 21/07 A3009 RMK A01 T02070071  RH  041%=      5-min Rain = 0
KQU1 260118Z 03008KT 21/07 A3009 RMK A01 T02060071  RH  041%=      5-min Rain = 0
KQU1 260119Z 03008KT 21/07 A3009 RMK A01 T02060071  RH  041%=      5-min Rain = 0
KQU1 260120Z 03008KT 21/07 A3009 RMK A01 T02060070  RH  041%=      5-min Rain = 0
KQU1 260121Z 03008KT 21/07 A3009 RMK A01 T02050071  RH  042%=      5-min Rain = 0
KQU1 260122Z 03007KT 21/07 A301 RMK A01 T02050072  RH  042%=      5-min Rain = 0
KQU1 260123Z 03008KT 20/07 A301 RMK A01 T02040073  RH  042%=      5-min Rain = 0
KQU1 260124Z 03007KT 20/07 A301 RMK A01 T02040073  RH  043%=      5-min Rain = 0
KQU1 260125Z 03008KT 20/07 A301 RMK A01 T02030071  RH  042%=      5-min Rain = 0
KQU1 260126Z 03007KT 20/07 A301 RMK A01 T02030073  RH  043%=      5-min Rain = 0
KQU1 260127Z 02006KT 20/07 A301 RMK A01 T02020073  RH  043%=      5-min Rain = 0
KQU1 260128Z 02006KT 20/07 A301 RMK A01 T02020074  RH  044%=      5-min Rain = 0
KQU1 260129Z 02007KT 20/08 A301 RMK A01 T02010075  RH  044%=      5-min Rain = 0
KQU1 260130Z 03007KT 20/07 A301 RMK A01 T02010074  RH  044%=      5-min Rain = 0
KQU1 260131Z 03007KT 20/07 A301 RMK A01 T02000073  RH  044%=      5-min Rain = 0
KQU1 260132Z 03006KT 20/07 A301 RMK A01 T02000074  RH  044%=      5-min Rain = 0
KQU1 260133Z 03006KT 20/07 A301 RMK A01 T02000074  RH  044%=      5-min Rain = 0
KQU1 260134Z 03006KT 20/08 A301 RMK A01 T01990075  RH  044%=      5-min Rain = 0
KQU1 260135Z 03006KT 20/08 A301 RMK A01 T01980076  RH  045%=      5-min Rain = 0
KQU1 260136Z 02006KT 20/08 A301 RMK A01 T01980075  RH  045%=      5-min Rain = 0
KQU1 260137Z 02005KT 20/08 A301 RMK A01 T01970077  RH  046%=      5-min Rain = 0
KQU1 260138Z 02006KT 20/08 A301 RMK A01 T01970078  RH  046%=      5-min Rain = 0
KQU1 260139Z 02005KT 20/08 A301 RMK A01 T01960076  RH  046%=      5-min Rain = 0
KQU1 260140Z 03005KT 20/08 A301 RMK A01 T01960076  RH  046%=      5-min Rain = 0
KQU1 260141Z 02005KT 20/08 A301 RMK A01 T01950075  RH  045%=      5-min Rain = 0
KQU1 260142Z 02005KT 20/08 A301 RMK A01 T01950076  RH  046%=      5-min Rain = 0
KQU1 260143Z 03005KT 20/08 A301 RMK A01 T01950077  RH  046%=      5-min Rain = 0
KQU1 260144Z 03005KT 19/08 A3011 RMK A01 T01940077  RH  047%=      5-min Rain = 0
KQU1 260145Z 02005KT 19/08 A3011 RMK A01 T01940077  RH  047%=      5-min Rain = 0
KQU1 260146Z 02005KT 19/08 A3011 RMK A01 T01930077  RH  047%=      5-min Rain = 0
KQU1 260147Z 03006KT 19/08 A3011 RMK A01 T01930077  RH  047%=      5-min Rain = 0
KQU1 260148Z 02005KT 19/08 A3011 RMK A01 T01920076  RH  047%=      5-min Rain = 0
KQU1 260149Z 03005KT 19/08 A3011 RMK A01 T01920077  RH  047%=      5-min Rain = 0
KQU1 260150Z 02005KT 19/08 A3011 RMK A01 T01920077  RH  047%=      5-min Rain = 0
KQU1 260151Z 03005KT 19/08 A3011 RMK A01 T01920077  RH  047%=      5-min Rain = 0
KQU1 260152Z 03004KT 19/08 A3011 RMK A01 T01910078  RH  048%=      5-min Rain = 0
KQU1 260153Z 03004KT 19/08 A3011 RMK A01 T01910078  RH  048%=      5-min Rain = 0
KQU1 260154Z 04004KT 19/08 A3011 RMK A01 T01910079  RH  048%=      5-min Rain = 0
KQU1 260155Z 03004KT 19/08 A3011 RMK A01 T01900078  RH  048%=      5-min Rain = 0
KQU1 260156Z 03004KT 19/08 A3011 RMK A01 T01900080  RH  049%=      5-min Rain = 0
KQU1 260157Z 03004KT 19/08 A3011 RMK A01 T01900081  RH  049%=      5-min Rain = 0
KQU1 260158Z 03004KT 19/08 A3011 RMK A01 T01900081  RH  049%=      5-min Rain = 0
KQU1 260159Z 02003KT 19/08 A3011 RMK A01 T01890081  RH  049%=      5-min Rain = 0
KQU1 260200Z 01003KT 19/08 A3012 RMK A01 T01890082  RH  050%=      5-min Rain = 0
KQU1 260201Z 01003KT 19/08 A3012 RMK A01 T01880082  RH  050%=      5-min Rain = 0
KQU1 260202Z 02002KT 19/08 A3012 RMK A01 T01880083  RH  050%=      5-min Rain = 0
KQU1 260203Z 01002KT 19/08 A3012 RMK A01 T01870081  RH  050%=      5-min Rain = 0
KQU1 260204Z 02002KT 19/08 A3012 RMK A01 T01860080  RH  050%=      5-min Rain = 0
KQU1 260205Z 01002KT 19/08 A3012 RMK A01 T01850081  RH  050%=      5-min Rain = 0
KQU1 260206Z 02002KT 19/08 A3012 RMK A01 T01850080  RH  051%=      5-min Rain = 0
KQU1 260207Z 01002KT 18/08 A3012 RMK A01 T01840081  RH  051%=      5-min Rain = 0
KQU1 260208Z 04001KT 18/08 A3012 RMK A01 T01840079  RH  050%=      5-min Rain = 0
KQU1 260209Z 01001KT 18/08 A3012 RMK A01 T01830079  RH  051%=      5-min Rain = 0
KQU1 260210Z 01003KT 18/08 A3012 RMK A01 T01830079  RH  051%=      5-min Rain = 0
KQU1 260211Z 00001KT 18/08 A3012 RMK A01 T01830078  RH  051%=      5-min Rain = 0
KQU1 260212Z 00001KT 18/08 A3012 RMK A01 T01820078  RH  051%=      5-min Rain = 0
KQU1 260213Z 02000KT 18/08 A3012 RMK A01 T01820079  RH  051%=      5-min Rain = 0
KQU1 260214Z 03001KT 18/08 A3012 RMK A01 T01820079  RH  051%=      5-min Rain = 0
KQU1 260215Z 01001KT 18/08 A3013 RMK A01 T01810078  RH  051%=      5-min Rain = 0
KQU1 260216Z 02001KT 18/08 A3013 RMK A01 T01810078  RH  051%=      5-min Rain = 0
KQU1 260217Z 04001KT 18/08 A3013 RMK A01 T01800079  RH  051%=      5-min Rain = 0
KQU1 260218Z 02002KT 18/08 A3013 RMK A01 T01800077  RH  051%=      5-min Rain = 0
KQU1 260219Z 02002KT 18/08 A3013 RMK A01 T01800077  RH  051%=      5-min Rain = 0
KQU1 260220Z 01002KT 18/08 A3013 RMK A01 T01800077  RH  051%=      5-min Rain = 0
KQU1 260221Z 01002KT 18/08 A3013 RMK A01 T01800077  RH  051%=      5-min Rain = 0
KQU1 260222Z 02002KT 18/08 A3013 RMK A01 T01790076  RH  051%=      5-min Rain = 0
KQU1 260223Z 02002KT 18/08 A3013 RMK A01 T01790077  RH  051%=      5-min Rain = 0
KQU1 260224Z 01002KT 18/08 A3013 RMK A01 T01790078  RH  052%=      5-min Rain = 0
KQU1 260225Z 00002KT 18/08 A3013 RMK A01 T01780079  RH  052%=      5-min Rain = 0
KQU1 260226Z 00002KT 18/08 A3013 RMK A01 T01770078  RH  052%=      5-min Rain = 0
KQU1 260227Z 00002KT 18/08 A3013 RMK A01 T01770077  RH  052%=      5-min Rain = 0
KQU1 260228Z 01002KT 18/08 A3013 RMK A01 T01760077  RH  052%=      5-min Rain = 0
KQU1 260229Z 00002KT 18/08 A3013 RMK A01 T01750077  RH  052%=      5-min Rain = 0
KQU1 260230Z 00002KT 18/08 A3013 RMK A01 T01750078  RH  053%=      5-min Rain = 0
KQU1 260231Z 35002KT 17/08 A3013 RMK A01 T01740080  RH  054%=      5-min Rain = 0
KQU1 260232Z 35002KT 17/08 A3013 RMK A01 T01720081  RH  055%=      5-min Rain = 0
KQU1 260233Z 34002KT 17/08 A3013 RMK A01 T01700081  RH  056%=      5-min Rain = 0
KQU1 260234Z 35002KT 17/08 A3014 RMK A01 T01690084  RH  057%=      5-min Rain = 0
KQU1 260235Z 35002KT 17/09 A3014 RMK A01 T01670085  RH  058%=      5-min Rain = 0
KQU1 260236Z 35002KT 17/09 A3014 RMK A01 T01650086  RH  059%=      5-min Rain = 0
KQU1 260237Z 34002KT 16/09 A3014 RMK A01 T01640086  RH  060%=      5-min Rain = 0
KQU1 260238Z 00002KT 16/09 A3014 RMK A01 T01640085  RH  060%=      5-min Rain = 0
KQU1 260239Z 35002KT 16/09 A3014 RMK A01 T01640087  RH  061%=      5-min Rain = 0
KQU1 260240Z 01003KT 16/09 A3014 RMK A01 T01630087  RH  060%=      5-min Rain = 0
KQU1 260241Z 36003KT 16/09 A3014 RMK A01 T01630087  RH  060%=      5-min Rain = 0
KQU1 260242Z 36002KT 16/09 A3014 RMK A01 T01640087  RH  060%=      5-min Rain = 0
KQU1 260243Z 00002KT 16/09 A3014 RMK A01 T01640086  RH  060%=      5-min Rain = 0
KQU1 260244Z 00002KT 16/09 A3014 RMK A01 T01640087  RH  060%=      5-min Rain = 0
KQU1 260245Z 00002KT 16/09 A3014 RMK A01 T01640089  RH  061%=      5-min Rain = 0
KQU1 260246Z 35002KT 16/09 A3014 RMK A01 T01630087  RH  061%=      5-min Rain = 0
KQU1 260247Z 00002KT 16/09 A3014 RMK A01 T01630086  RH  061%=      5-min Rain = 0
KQU1 260248Z 01002KT 16/09 A3015 RMK A01 T01630087  RH  061%=      5-min Rain = 0
KQU1 260249Z 00003KT 16/09 A3015 RMK A01 T01630087  RH  061%=      5-min Rain = 0
KQU1 260250Z 01003KT 16/09 A3015 RMK A01 T01630087  RH  061%=      5-min Rain = 0
KQU1 260251Z 01003KT 16/09 A3015 RMK A01 T01630087  RH  061%=      5-min Rain = 0
KQU1 260252Z 02003KT 16/09 A3015 RMK A01 T01630087  RH  061%=      5-min Rain = 0
KQU1 260253Z 02003KT 16/09 A3015 RMK A01 T01630086  RH  060%=      5-min Rain = 0
KQU1 260254Z 02003KT 16/09 A3015 RMK A01 T01630086  RH  060%=      5-min Rain = 0
KQU1 260255Z 01003KT 16/08 A3015 RMK A01 T01630084  RH  059%=      5-min Rain = 0
KQU1 260256Z 01003KT 16/08 A3015 RMK A01 T01640083  RH  059%=      5-min Rain = 0
KQU1 260257Z 01003KT 17/08 A3015 RMK A01 T01650084  RH  059%=      5-min Rain = 0
KQU1 260258Z 01003KT 17/08 A3015 RMK A01 T01650084  RH  059%=      5-min Rain = 0
KQU1 260259Z 01003KT 17/08 A3015 RMK A01 T01650084  RH  059%=      5-min Rain = 0
KQU1 260300Z 02003KT 17/09 A3015 RMK A01 T01650085  RH  059%=      5-min Rain = 0
KQU1 260301Z 01003KT 17/09 A3015 RMK A01 T01650085  RH  059%=      5-min Rain = 0
KQU1 260302Z 01003KT 16/08 A3015 RMK A01 T01640084  RH  059%=      5-min Rain = 0
KQU1 260303Z 02003KT 16/08 A3016 RMK A01 T01640084  RH  059%=      5-min Rain = 0
KQU1 260304Z 01003KT 16/08 A3016 RMK A01 T01630084  RH  059%=      5-min Rain = 0
KQU1 260305Z 03003KT 16/08 A3016 RMK A01 T01630084  RH  059%=      5-min Rain = 0
KQU1 260306Z 02002KT 16/09 A3016 RMK A01 T01630085  RH  060%=      5-min Rain = 0
KQU1 260307Z 02002KT 16/09 A3016 RMK A01 T01630085  RH  060%=      5-min Rain = 0
KQU1 260308Z 04002KT 16/09 A3016 RMK A01 T01620086  RH  061%=      5-min Rain = 0
KQU1 260309Z 03002KT 16/09 A3016 RMK A01 T01610086  RH  061%=      5-min Rain = 0
KQU1 260310Z 04003KT 16/09 A3016 RMK A01 T01610086  RH  061%=      5-min Rain = 0
KQU1 260311Z 04002KT 16/09 A3016 RMK A01 T01600086  RH  061%=      5-min Rain = 0
KQU1 260312Z 04001KT 16/09 A3016 RMK A01 T01600085  RH  061%=      5-min Rain = 0
KQU1 260313Z 04002KT 16/08 A3016 RMK A01 T01610084  RH  060%=      5-min Rain = 0
KQU1 260314Z 04002KT 16/09 A3016 RMK A01 T01610085  RH  061%=      5-min Rain = 0
KQU1 260315Z 05001KT 16/09 A3016 RMK A01 T01610086  RH  061%=      5-min Rain = 0
KQU1 260316Z 04002KT 16/09 A3016 RMK A01 T01610086  RH  061%=      5-min Rain = 0
KQU1 260317Z 04002KT 16/09 A3016 RMK A01 T01620085  RH  060%=      5-min Rain = 0
KQU1 260318Z 04002KT 16/09 A3017 RMK A01 T01620085  RH  060%=      5-min Rain = 0
KQU1 260319Z 04001KT 16/09 A3017 RMK A01 T01630085  RH  060%=      5-min Rain = 0
KQU1 260320Z 04000KT 16/09 A3017 RMK A01 T01630085  RH  060%=      5-min Rain = 0
KQU1 260321Z 04002KT 16/09 A3017 RMK A01 T01630086  RH  060%=      5-min Rain = 0
KQU1 260322Z 03002KT 16/09 A3017 RMK A01 T01620087  RH  061%=      5-min Rain = 0
KQU1 260323Z 02001KT 16/09 A3017 RMK A01 T01610089  RH  062%=      5-min Rain = 0
KQU1 260324Z 02002KT 16/09 A3017 RMK A01 T01590090  RH  063%=      5-min Rain = 0
KQU1 260325Z 02002KT 16/09 A3017 RMK A01 T01580091  RH  064%=      5-min Rain = 0
KQU1 260326Z 03001KT 16/09 A3017 RMK A01 T01560093  RH  066%=      5-min Rain = 0
KQU1 260327Z 02002KT 15/09 A3017 RMK A01 T01530092  RH  067%=      5-min Rain = 0
KQU1 260328Z 03002KT 15/09 A3017 RMK A01 T01510092  RH  068%=      5-min Rain = 0
KQU1 260329Z 00001KT 15/09 A3017 RMK A01 T01500091  RH  068%=      5-min Rain = 0
KQU1 260330Z 36001KT 15/09 A3017 RMK A01 T01490093  RH  069%=      5-min Rain = 0
KQU1 260331Z 01002KT 15/09 A3017 RMK A01 T01470091  RH  069%=      5-min Rain = 0
KQU1 260332Z 35002KT 15/09 A3017 RMK A01 T01480092  RH  069%=      5-min Rain = 0
KQU1 260333Z 33002KT 15/09 A3017 RMK A01 T01470093  RH  070%=      5-min Rain = 0
KQU1 260334Z 34002KT 15/09 A3017 RMK A01 T01450093  RH  071%=      5-min Rain = 0
KQU1 260335Z 33002KT 14/09 A3017 RMK A01 T01440094  RH  072%=      5-min Rain = 0
KQU1 260336Z 30002KT 14/09 A3017 RMK A01 T01430094  RH  073%=      5-min Rain = 0
KQU1 260337Z 32002KT 14/10 A3017 RMK A01 T01410095  RH  074%=      5-min Rain = 0
KQU1 260338Z 31002KT 14/10 A3017 RMK A01 T01400095  RH  074%=      5-min Rain = 0
KQU1 260339Z 31002KT 14/10 A3017 RMK A01 T01390095  RH  075%=      5-min Rain = 0
KQU1 260340Z 33001KT 14/09 A3017 RMK A01 T01380094  RH  075%=      5-min Rain = 0
KQU1 260341Z 31001KT 14/10 A3017 RMK A01 T01380095  RH  075%=      5-min Rain = 0
KQU1 260342Z 30002KT 14/10 A3017 RMK A01 T01380095  RH  075%=      5-min Rain = 0
KQU1 260343Z 34002KT 14/10 A3017 RMK A01 T01370096  RH  076%=      5-min Rain = 0
KQU1 260344Z 31002KT 14/10 A3017 RMK A01 T01370096  RH  076%=      5-min Rain = 0
KQU1 260345Z 32002KT 14/10 A3017 RMK A01 T01370096  RH  077%=      5-min Rain = 0
KQU1 260346Z 33002KT 14/10 A3017 RMK A01 T01370096  RH  077%=      5-min Rain = 0
KQU1 260347Z 32002KT 14/10 A3017 RMK A01 T01360095  RH  076%=      5-min Rain = 0
KQU1 260348Z 33002KT 14/10 A3017 RMK A01 T01370096  RH  076%=      5-min Rain = 0
KQU1 260349Z 33002KT 14/10 A3017 RMK A01 T01360096  RH  077%=      5-min Rain = 0
KQU1 260350Z 33002KT 14/10 A3017 RMK A01 T01360096  RH  077%=      5-min Rain = 0
KQU1 260351Z 34002KT 14/10 A3017 RMK A01 T01350096  RH  077%=      5-min Rain = 0
KQU1 260352Z 34002KT 13/10 A3017 RMK A01 T01330096  RH  078%=      5-min Rain = 0
KQU1 260353Z 33003KT 13/10 A3017 RMK A01 T01330095  RH  078%=      5-min Rain = 0
KQU1 260354Z 33003KT 13/10 A3017 RMK A01 T01320096  RH  078%=      5-min Rain = 0
KQU1 260355Z 33003KT 13/10 A3017 RMK A01 T01310096  RH  079%=      5-min Rain = 0
KQU1 260356Z 32003KT 13/10 A3017 RMK A01 T01300096  RH  080%=      5-min Rain = 0
KQU1 260357Z 32003KT 13/10 A3017 RMK A01 T01290097  RH  081%=      5-min Rain = 0
KQU1 260358Z 32003KT 13/10 A3017 RMK A01 T01280097  RH  081%=      5-min Rain = 0
KQU1 260359Z 32003KT 13/10 A3018 RMK A01 T01280098  RH  082%=      5-min Rain = 0
KQU1 260400Z 32003KT 13/10 A3018 RMK A01 T01280098  RH  082%=      5-min Rain = 0
KQU1 260401Z 32003KT 13/10 A3018 RMK A01 T01270098  RH  082%=      5-min Rain = 0
KQU1 260402Z 33003KT 13/10 A3018 RMK A01 T01270098  RH  082%=      5-min Rain = 0
KQU1 260403Z 32002KT 13/10 A3018 RMK A01 T01270097  RH  082%=      5-min Rain = 0
KQU1 260404Z 32003KT 13/10 A3018 RMK A01 T01270097  RH  082%=      5-min Rain = 0
KQU1 260405Z 32003KT 13/10 A3018 RMK A01 T01280097  RH  082%=      5-min Rain = 0
KQU1 260406Z 32003KT 13/10 A3018 RMK A01 T01270097  RH  082%=      5-min Rain = 0
KQU1 260407Z 32003KT 13/10 A3018 RMK A01 T01270097  RH  082%=      5-min Rain = 0
KQU1 260408Z 32003KT 13/10 A3018 RMK A01 T01270097  RH  082%=      5-min Rain = 0
KQU1 260409Z 32003KT 13/10 A3018 RMK A01 T01270097  RH  082%=      5-min Rain = 0
KQU1 260410Z 32002KT 13/10 A3018 RMK A01 T01270097  RH  082%=      5-min Rain = 0
KQU1 260411Z 32003KT 13/10 A3018 RMK A01 T01270097  RH  082%=      5-min Rain = 0
KQU1 260412Z 32002KT 13/10 A3018 RMK A01 T01270098  RH  082%=      5-min Rain = 0
KQU1 260413Z 32002KT 13/10 A3018 RMK A01 T01260097  RH  082%=      5-min Rain = 0
KQU1 260414Z 33002KT 13/10 A3018 RMK A01 T01260097  RH  082%=      5-min Rain = 0
KQU1 260415Z 33002KT 13/10 A3018 RMK A01 T01260097  RH  083%=      5-min Rain = 0
KQU1 260416Z 33002KT 13/10 A3018 RMK A01 T01250097  RH  083%=      5-min Rain = 0
KQU1 260417Z 32002KT 13/10 A3018 RMK A01 T01250097  RH  083%=      5-min Rain = 0
KQU1 260418Z 32002KT 12/10 A3018 RMK A01 T01240097  RH  083%=      5-min Rain = 0
KQU1 260419Z 32002KT 12/10 A3018 RMK A01 T01240097  RH  083%=      5-min Rain = 0
KQU1 260420Z 31002KT 12/10 A3018 RMK A01 T01240096  RH  083%=      5-min Rain = 0
KQU1 260421Z 31002KT 12/10 A3018 RMK A01 T01230097  RH  084%=      5-min Rain = 0
KQU1 260422Z 31002KT 12/10 A3018 RMK A01 T01230097  RH  084%=      5-min Rain = 0
KQU1 260423Z 31002KT 12/10 A3018 RMK A01 T01230097  RH  084%=      5-min Rain = 0
KQU1 260424Z 31001KT 12/10 A3018 RMK A01 T01240097  RH  084%=      5-min Rain = 0
KQU1 260425Z 32002KT 12/10 A3018 RMK A01 T01230096  RH  084%=      5-min Rain = 0
KQU1 260426Z 32002KT 12/10 A3018 RMK A01 T01230096  RH  084%=      5-min Rain = 0
KQU1 260427Z 31001KT 12/10 A3018 RMK A01 T01230096  RH  084%=      5-min Rain = 0
KQU1 260428Z 30002KT 12/10 A3018 RMK A01 T01230096  RH  084%=      5-min Rain = 0
KQU1 260429Z 30001KT 12/10 A3018 RMK A01 T01230096  RH  084%=      5-min Rain = 0
KQU1 260430Z 30001KT 12/10 A3018 RMK A01 T01230096  RH  084%=      5-min Rain = 0
KQU1 260431Z 30001KT 12/10 A3018 RMK A01 T01230096  RH  084%=      5-min Rain = 0
KQU1 260432Z 29002KT 12/10 A3018 RMK A01 T01230096  RH  083%=      5-min Rain = 0
KQU1 260433Z 29002KT 12/10 A3019 RMK A01 T01240096  RH  083%=      5-min Rain = 0
KQU1 260434Z 29002KT 12/10 A3019 RMK A01 T01240096  RH  083%=      5-min Rain = 0
KQU1 260435Z 29002KT 12/10 A3019 RMK A01 T01230096  RH  083%=      5-min Rain = 0
KQU1 260436Z 29003KT 12/10 A3019 RMK A01 T01230095  RH  083%=      5-min Rain = 0
KQU1 260437Z 29002KT 12/10 A3019 RMK A01 T01220095  RH  083%=      5-min Rain = 0
KQU1 260438Z 28003KT 12/10 A3019 RMK A01 T01220095  RH  083%=      5-min Rain = 0
KQU1 260439Z 28002KT 12/10 A3019 RMK A01 T01230095  RH  083%=      5-min Rain = 0
KQU1 260440Z 28002KT 12/10 A3019 RMK A01 T01240095  RH  082%=      5-min Rain = 0
KQU1 260441Z 29002KT 13/10 A3019 RMK A01 T01250095  RH  082%=      5-min Rain = 0
KQU1 260442Z 28002KT 13/09 A3019 RMK A01 T01260094  RH  081%=      5-min Rain = 0
KQU1 260443Z 29002KT 13/10 A3019 RMK A01 T01250095  RH  082%=      5-min Rain = 0
KQU1 260444Z 30002KT 13/09 A3019 RMK A01 T01250094  RH  082%=      5-min Rain = 0
KQU1 260445Z 30001KT 13/09 A3019 RMK A01 T01250094  RH  082%=      5-min Rain = 0
KQU1 260446Z 31001KT 13/10 A3019 RMK A01 T01250095  RH  082%=      5-min Rain = 0
KQU1 260447Z 31001KT 12/10 A3019 RMK A01 T01240095  RH  082%=      5-min Rain = 0
KQU1 260448Z 30002KT 12/10 A3019 RMK A01 T01240095  RH  082%=      5-min Rain = 0
KQU1 260449Z 31002KT 12/10 A3019 RMK A01 T01240095  RH  082%=      5-min Rain = 0
KQU1 260450Z 30002KT 12/10 A3019 RMK A01 T01240095  RH  082%=      5-min Rain = 0
KQU1 260451Z 31001KT 12/10 A3019 RMK A01 T01230095  RH  083%=      5-min Rain = 0
KQU1 260452Z 29001KT 12/10 A3019 RMK A01 T01230095  RH  083%=      5-min Rain = 0
KQU1 260453Z 29001KT 12/10 A3019 RMK A01 T01230095  RH  083%=      5-min Rain = 0
KQU1 260454Z 28001KT 12/09 A3019 RMK A01 T01230094  RH  083%=      5-min Rain = 0
KQU1 260455Z 28001KT 12/10 A3019 RMK A01 T01220095  RH  083%=      5-min Rain = 0
KQU1 260456Z 29001KT 12/10 A3019 RMK A01 T01220095  RH  083%=      5-min Rain = 0
KQU1 260457Z 30002KT 12/09 A3019 RMK A01 T01210094  RH  084%=      5-min Rain = 0
KQU1 260458Z 29002KT 12/09 A3019 RMK A01 T01200094  RH  084%=      5-min Rain = 0
KQU1 260459Z 31001KT 12/09 A3019 RMK A01 T01200094  RH  084%=      5-min Rain = 0

Page generated in 0.1213 seconds.